<?xml version="1.0" encoding="UTF-8" standalone="no" ?>
<gpx xmlns="http://www.topografix.com/GPX/1/1" xmlns:xsi="http://www.w3.org/2001/XMLSchema-instance" xsi:schemaLocation="http://www.topografix.com/GPX/1/1 http://www.topografix.com/GPX/1/1/gpx.xsd" version="1.1" creator="VisuGPX - https://www.visugpx.com">
  <metadata>
    <name>Mtp_pignan_st_georges</name>
  </metadata>
  <trk>
    <name><![CDATA[Mtp_pignan_st_georges_1]]></name>
    <extensions>
      <line xmlns="http://www.topografix.com/GPX/gpx_style/0/2">
        <color>0000FF</color>
        <width>4</width>
      </line>
    </extensions>
    <trkseg>
      <trkpt lat="43.61595" lon="3.81964">
        <ele>39.8</ele>
        <time>2021-11-01T12:36:41Z</time>
      </trkpt>
      <trkpt lat="43.61595" lon="3.81964">
        <ele>39.8</ele>
        <time>2021-11-01T12:36:41Z</time>
      </trkpt>
      <trkpt lat="43.61582" lon="3.81918">
        <ele>39</ele>
        <time>2021-11-01T12:36:51Z</time>
      </trkpt>
      <trkpt lat="43.61573" lon="3.81882">
        <ele>38.2</ele>
        <time>2021-11-01T12:37:01Z</time>
      </trkpt>
      <trkpt lat="43.61561" lon="3.81837">
        <ele>37.7</ele>
        <time>2021-11-01T12:37:11Z</time>
      </trkpt>
      <trkpt lat="43.61548" lon="3.8179">
        <ele>36.3</ele>
        <time>2021-11-01T12:37:21Z</time>
      </trkpt>
      <trkpt lat="43.61537" lon="3.81748">
        <ele>36.4</ele>
        <time>2021-11-01T12:37:31Z</time>
      </trkpt>
      <trkpt lat="43.61525" lon="3.81704">
        <ele>32.6</ele>
        <time>2021-11-01T12:37:41Z</time>
      </trkpt>
      <trkpt lat="43.61513" lon="3.81658">
        <ele>36.4</ele>
        <time>2021-11-01T12:37:51Z</time>
      </trkpt>
      <trkpt lat="43.61498" lon="3.81625">
        <ele>37.8</ele>
        <time>2021-11-01T12:38:01Z</time>
      </trkpt>
      <trkpt lat="43.61484" lon="3.81607">
        <ele>37</ele>
        <time>2021-11-01T12:38:11Z</time>
      </trkpt>
      <trkpt lat="43.61472" lon="3.81569">
        <ele>38</ele>
        <time>2021-11-01T12:38:21Z</time>
      </trkpt>
      <trkpt lat="43.6146" lon="3.81589">
        <ele>36.7</ele>
        <time>2021-11-01T12:38:31Z</time>
      </trkpt>
      <trkpt lat="43.61457" lon="3.81631">
        <ele>33.9</ele>
        <time>2021-11-01T12:38:41Z</time>
      </trkpt>
      <trkpt lat="43.61443" lon="3.81685">
        <ele>32.4</ele>
        <time>2021-11-01T12:38:51Z</time>
      </trkpt>
      <trkpt lat="43.61417" lon="3.81699">
        <ele>32.5</ele>
        <time>2021-11-01T12:39:01Z</time>
      </trkpt>
      <trkpt lat="43.61406" lon="3.81724">
        <ele>32.1</ele>
        <time>2021-11-01T12:39:11Z</time>
      </trkpt>
      <trkpt lat="43.61388" lon="3.81731">
        <ele>33.8</ele>
        <time>2021-11-01T12:39:21Z</time>
      </trkpt>
      <trkpt lat="43.61346" lon="3.81742">
        <ele>32.3</ele>
        <time>2021-11-01T12:39:31Z</time>
      </trkpt>
      <trkpt lat="43.61311" lon="3.81749">
        <ele>32</ele>
        <time>2021-11-01T12:39:41Z</time>
      </trkpt>
      <trkpt lat="43.61278" lon="3.81752">
        <ele>33.6</ele>
        <time>2021-11-01T12:39:51Z</time>
      </trkpt>
      <trkpt lat="43.61246" lon="3.8177">
        <ele>31.1</ele>
        <time>2021-11-01T12:40:01Z</time>
      </trkpt>
      <trkpt lat="43.61218" lon="3.81788">
        <ele>31.3</ele>
        <time>2021-11-01T12:40:11Z</time>
      </trkpt>
      <trkpt lat="43.61186" lon="3.81813">
        <ele>31.6</ele>
        <time>2021-11-01T12:40:21Z</time>
      </trkpt>
      <trkpt lat="43.61151" lon="3.81842">
        <ele>31.2</ele>
        <time>2021-11-01T12:40:31Z</time>
      </trkpt>
      <trkpt lat="43.61117" lon="3.81864">
        <ele>30.3</ele>
        <time>2021-11-01T12:40:41Z</time>
      </trkpt>
      <trkpt lat="43.61086" lon="3.81871">
        <ele>31.1</ele>
        <time>2021-11-01T12:40:51Z</time>
      </trkpt>
      <trkpt lat="43.6105" lon="3.81889">
        <ele>31.4</ele>
        <time>2021-11-01T12:41:01Z</time>
      </trkpt>
      <trkpt lat="43.6102" lon="3.81906">
        <ele>29.7</ele>
        <time>2021-11-01T12:41:11Z</time>
      </trkpt>
      <trkpt lat="43.61005" lon="3.81918">
        <ele>29.4</ele>
        <time>2021-11-01T12:41:21Z</time>
      </trkpt>
      <trkpt lat="43.60978" lon="3.81924">
        <ele>29.8</ele>
        <time>2021-11-01T12:41:31Z</time>
      </trkpt>
      <trkpt lat="43.6095" lon="3.81934">
        <ele>28.7</ele>
        <time>2021-11-01T12:41:41Z</time>
      </trkpt>
      <trkpt lat="43.60931" lon="3.81938">
        <ele>29.2</ele>
        <time>2021-11-01T12:41:51Z</time>
      </trkpt>
      <trkpt lat="43.60925" lon="3.81934">
        <ele>29.6</ele>
        <time>2021-11-01T12:42:01Z</time>
      </trkpt>
      <trkpt lat="43.60892" lon="3.81936">
        <ele>30</ele>
        <time>2021-11-01T12:42:11Z</time>
      </trkpt>
      <trkpt lat="43.60856" lon="3.81944">
        <ele>30</ele>
        <time>2021-11-01T12:42:21Z</time>
      </trkpt>
      <trkpt lat="43.60825" lon="3.81943">
        <ele>30</ele>
        <time>2021-11-01T12:42:31Z</time>
      </trkpt>
      <trkpt lat="43.60793" lon="3.81932">
        <ele>29.5</ele>
        <time>2021-11-01T12:42:41Z</time>
      </trkpt>
      <trkpt lat="43.60764" lon="3.81909">
        <ele>30.4</ele>
        <time>2021-11-01T12:42:51Z</time>
      </trkpt>
      <trkpt lat="43.6074" lon="3.81878">
        <ele>30.9</ele>
        <time>2021-11-01T12:43:01Z</time>
      </trkpt>
      <trkpt lat="43.60719" lon="3.81841">
        <ele>30.5</ele>
        <time>2021-11-01T12:43:11Z</time>
      </trkpt>
      <trkpt lat="43.60697" lon="3.81804">
        <ele>30</ele>
        <time>2021-11-01T12:43:21Z</time>
      </trkpt>
      <trkpt lat="43.60671" lon="3.81801">
        <ele>34.1</ele>
        <time>2021-11-01T12:43:31Z</time>
      </trkpt>
      <trkpt lat="43.60644" lon="3.81851">
        <ele>31.3</ele>
        <time>2021-11-01T12:43:48Z</time>
      </trkpt>
      <trkpt lat="43.60624" lon="3.81846">
        <ele>30</ele>
        <time>2021-11-01T12:44:38Z</time>
      </trkpt>
      <trkpt lat="43.60604" lon="3.81829">
        <ele>29</ele>
        <time>2021-11-01T12:44:58Z</time>
      </trkpt>
      <trkpt lat="43.60583" lon="3.81808">
        <ele>29</ele>
        <time>2021-11-01T12:45:08Z</time>
      </trkpt>
      <trkpt lat="43.60561" lon="3.81783">
        <ele>29</ele>
        <time>2021-11-01T12:45:18Z</time>
      </trkpt>
      <trkpt lat="43.60538" lon="3.81758">
        <ele>29</ele>
        <time>2021-11-01T12:45:28Z</time>
      </trkpt>
      <trkpt lat="43.60516" lon="3.81729">
        <ele>29</ele>
        <time>2021-11-01T12:45:38Z</time>
      </trkpt>
      <trkpt lat="43.60493" lon="3.81703">
        <ele>29</ele>
        <time>2021-11-01T12:45:48Z</time>
      </trkpt>
      <trkpt lat="43.60474" lon="3.8168">
        <ele>28.5</ele>
        <time>2021-11-01T12:45:58Z</time>
      </trkpt>
      <trkpt lat="43.60451" lon="3.81657">
        <ele>28.8</ele>
        <time>2021-11-01T12:46:08Z</time>
      </trkpt>
      <trkpt lat="43.6043" lon="3.81638">
        <ele>28.5</ele>
        <time>2021-11-01T12:46:18Z</time>
      </trkpt>
      <trkpt lat="43.60414" lon="3.81656">
        <ele>28</ele>
        <time>2021-11-01T12:46:38Z</time>
      </trkpt>
      <trkpt lat="43.60395" lon="3.81681">
        <ele>28</ele>
        <time>2021-11-01T12:46:58Z</time>
      </trkpt>
      <trkpt lat="43.60378" lon="3.81677">
        <ele>28</ele>
        <time>2021-11-01T12:47:08Z</time>
      </trkpt>
      <trkpt lat="43.60364" lon="3.81662">
        <ele>28</ele>
        <time>2021-11-01T12:47:18Z</time>
      </trkpt>
      <trkpt lat="43.60344" lon="3.81658">
        <ele>28</ele>
        <time>2021-11-01T12:47:28Z</time>
      </trkpt>
      <trkpt lat="43.60326" lon="3.81658">
        <ele>27.5</ele>
        <time>2021-11-01T12:47:38Z</time>
      </trkpt>
      <trkpt lat="43.60311" lon="3.81642">
        <ele>27.7</ele>
        <time>2021-11-01T12:47:48Z</time>
      </trkpt>
      <trkpt lat="43.60285" lon="3.8163">
        <ele>26.5</ele>
        <time>2021-11-01T12:47:58Z</time>
      </trkpt>
      <trkpt lat="43.60266" lon="3.8161">
        <ele>28</ele>
        <time>2021-11-01T12:48:08Z</time>
      </trkpt>
      <trkpt lat="43.60271" lon="3.8157">
        <ele>27.9</ele>
        <time>2021-11-01T12:48:18Z</time>
      </trkpt>
      <trkpt lat="43.60285" lon="3.8154">
        <ele>28.6</ele>
        <time>2021-11-01T12:48:28Z</time>
      </trkpt>
      <trkpt lat="43.60284" lon="3.81522">
        <ele>29.4</ele>
        <time>2021-11-01T12:48:38Z</time>
      </trkpt>
      <trkpt lat="43.6026" lon="3.81509">
        <ele>30.1</ele>
        <time>2021-11-01T12:48:48Z</time>
      </trkpt>
      <trkpt lat="43.60235" lon="3.81495">
        <ele>30.6</ele>
        <time>2021-11-01T12:48:58Z</time>
      </trkpt>
      <trkpt lat="43.60209" lon="3.81472">
        <ele>31</ele>
        <time>2021-11-01T12:49:08Z</time>
      </trkpt>
      <trkpt lat="43.60183" lon="3.81449">
        <ele>31</ele>
        <time>2021-11-01T12:49:18Z</time>
      </trkpt>
      <trkpt lat="43.60156" lon="3.81425">
        <ele>30.9</ele>
        <time>2021-11-01T12:49:28Z</time>
      </trkpt>
      <trkpt lat="43.60129" lon="3.814">
        <ele>30.9</ele>
        <time>2021-11-01T12:49:38Z</time>
      </trkpt>
      <trkpt lat="43.60105" lon="3.81377">
        <ele>31</ele>
        <time>2021-11-01T12:49:48Z</time>
      </trkpt>
      <trkpt lat="43.60081" lon="3.81354">
        <ele>30.9</ele>
        <time>2021-11-01T12:49:58Z</time>
      </trkpt>
      <trkpt lat="43.60061" lon="3.81336">
        <ele>30.9</ele>
        <time>2021-11-01T12:50:08Z</time>
      </trkpt>
      <trkpt lat="43.60045" lon="3.81366">
        <ele>29.9</ele>
        <time>2021-11-01T12:50:18Z</time>
      </trkpt>
      <trkpt lat="43.60024" lon="3.81363">
        <ele>29.8</ele>
        <time>2021-11-01T12:50:28Z</time>
      </trkpt>
      <trkpt lat="43.60003" lon="3.81334">
        <ele>30.8</ele>
        <time>2021-11-01T12:50:38Z</time>
      </trkpt>
      <trkpt lat="43.59982" lon="3.81306">
        <ele>32.3</ele>
        <time>2021-11-01T12:50:48Z</time>
      </trkpt>
      <trkpt lat="43.59965" lon="3.81285">
        <ele>33.7</ele>
        <time>2021-11-01T12:50:58Z</time>
      </trkpt>
      <trkpt lat="43.59946" lon="3.81265">
        <ele>35.4</ele>
        <time>2021-11-01T12:51:08Z</time>
      </trkpt>
      <trkpt lat="43.59928" lon="3.8125">
        <ele>36.8</ele>
        <time>2021-11-01T12:51:18Z</time>
      </trkpt>
      <trkpt lat="43.5991" lon="3.81236">
        <ele>38.2</ele>
        <time>2021-11-01T12:51:28Z</time>
      </trkpt>
      <trkpt lat="43.59893" lon="3.81221">
        <ele>38.9</ele>
        <time>2021-11-01T12:51:38Z</time>
      </trkpt>
      <trkpt lat="43.59877" lon="3.81206">
        <ele>40.4</ele>
        <time>2021-11-01T12:51:48Z</time>
      </trkpt>
      <trkpt lat="43.59863" lon="3.8119">
        <ele>41.9</ele>
        <time>2021-11-01T12:51:58Z</time>
      </trkpt>
      <trkpt lat="43.59848" lon="3.81169">
        <ele>42.9</ele>
        <time>2021-11-01T12:52:08Z</time>
      </trkpt>
      <trkpt lat="43.59835" lon="3.81146">
        <ele>43.9</ele>
        <time>2021-11-01T12:52:18Z</time>
      </trkpt>
      <trkpt lat="43.59826" lon="3.81118">
        <ele>44</ele>
        <time>2021-11-01T12:52:28Z</time>
      </trkpt>
      <trkpt lat="43.59814" lon="3.81091">
        <ele>45.1</ele>
        <time>2021-11-01T12:52:38Z</time>
      </trkpt>
      <trkpt lat="43.59802" lon="3.81065">
        <ele>45.7</ele>
        <time>2021-11-01T12:52:48Z</time>
      </trkpt>
      <trkpt lat="43.5979" lon="3.8104">
        <ele>46.7</ele>
        <time>2021-11-01T12:52:58Z</time>
      </trkpt>
      <trkpt lat="43.59778" lon="3.81013">
        <ele>48</ele>
        <time>2021-11-01T12:53:08Z</time>
      </trkpt>
      <trkpt lat="43.59767" lon="3.80988">
        <ele>48.8</ele>
        <time>2021-11-01T12:53:18Z</time>
      </trkpt>
      <trkpt lat="43.59755" lon="3.80963">
        <ele>49.9</ele>
        <time>2021-11-01T12:53:28Z</time>
      </trkpt>
      <trkpt lat="43.59744" lon="3.80936">
        <ele>50.1</ele>
        <time>2021-11-01T12:53:38Z</time>
      </trkpt>
      <trkpt lat="43.59737" lon="3.80903">
        <ele>50.5</ele>
        <time>2021-11-01T12:53:48Z</time>
      </trkpt>
      <trkpt lat="43.59729" lon="3.80866">
        <ele>51</ele>
        <time>2021-11-01T12:53:58Z</time>
      </trkpt>
      <trkpt lat="43.59723" lon="3.80825">
        <ele>51</ele>
        <time>2021-11-01T12:54:08Z</time>
      </trkpt>
      <trkpt lat="43.59713" lon="3.80789">
        <ele>51</ele>
        <time>2021-11-01T12:54:18Z</time>
      </trkpt>
      <trkpt lat="43.59703" lon="3.80752">
        <ele>51</ele>
        <time>2021-11-01T12:54:28Z</time>
      </trkpt>
      <trkpt lat="43.59697" lon="3.80714">
        <ele>52</ele>
        <time>2021-11-01T12:54:38Z</time>
      </trkpt>
      <trkpt lat="43.59695" lon="3.80678">
        <ele>52</ele>
        <time>2021-11-01T12:54:48Z</time>
      </trkpt>
      <trkpt lat="43.59688" lon="3.80642">
        <ele>52.9</ele>
        <time>2021-11-01T12:54:58Z</time>
      </trkpt>
      <trkpt lat="43.59684" lon="3.80602">
        <ele>53</ele>
        <time>2021-11-01T12:55:08Z</time>
      </trkpt>
      <trkpt lat="43.5968" lon="3.80561">
        <ele>53.4</ele>
        <time>2021-11-01T12:55:18Z</time>
      </trkpt>
      <trkpt lat="43.59669" lon="3.80523">
        <ele>54</ele>
        <time>2021-11-01T12:55:28Z</time>
      </trkpt>
      <trkpt lat="43.59655" lon="3.80486">
        <ele>54.2</ele>
        <time>2021-11-01T12:55:38Z</time>
      </trkpt>
      <trkpt lat="43.59642" lon="3.80446">
        <ele>54.9</ele>
        <time>2021-11-01T12:55:48Z</time>
      </trkpt>
      <trkpt lat="43.59636" lon="3.80406">
        <ele>55.2</ele>
        <time>2021-11-01T12:55:58Z</time>
      </trkpt>
      <trkpt lat="43.59615" lon="3.80369">
        <ele>54.7</ele>
        <time>2021-11-01T12:56:08Z</time>
      </trkpt>
      <trkpt lat="43.59588" lon="3.8033">
        <ele>55</ele>
        <time>2021-11-01T12:56:18Z</time>
      </trkpt>
      <trkpt lat="43.59562" lon="3.80293">
        <ele>55</ele>
        <time>2021-11-01T12:56:28Z</time>
      </trkpt>
      <trkpt lat="43.59537" lon="3.80255">
        <ele>55.3</ele>
        <time>2021-11-01T12:56:38Z</time>
      </trkpt>
      <trkpt lat="43.59515" lon="3.80212">
        <ele>55.5</ele>
        <time>2021-11-01T12:56:48Z</time>
      </trkpt>
      <trkpt lat="43.59498" lon="3.80166">
        <ele>55.9</ele>
        <time>2021-11-01T12:56:58Z</time>
      </trkpt>
      <trkpt lat="43.59478" lon="3.8014">
        <ele>55.2</ele>
        <time>2021-11-01T12:57:08Z</time>
      </trkpt>
      <trkpt lat="43.59439" lon="3.80133">
        <ele>53.8</ele>
        <time>2021-11-01T12:57:18Z</time>
      </trkpt>
      <trkpt lat="43.59393" lon="3.80112">
        <ele>52.1</ele>
        <time>2021-11-01T12:57:28Z</time>
      </trkpt>
      <trkpt lat="43.59338" lon="3.80087">
        <ele>50.2</ele>
        <time>2021-11-01T12:57:38Z</time>
      </trkpt>
      <trkpt lat="43.59286" lon="3.80078">
        <ele>49</ele>
        <time>2021-11-01T12:57:48Z</time>
      </trkpt>
      <trkpt lat="43.59247" lon="3.80098">
        <ele>47.9</ele>
        <time>2021-11-01T12:57:58Z</time>
      </trkpt>
      <trkpt lat="43.59213" lon="3.80041">
        <ele>45.7</ele>
        <time>2021-11-01T12:58:08Z</time>
      </trkpt>
      <trkpt lat="43.5918" lon="3.79983">
        <ele>45</ele>
        <time>2021-11-01T12:58:18Z</time>
      </trkpt>
      <trkpt lat="43.59185" lon="3.79956">
        <ele>45.1</ele>
        <time>2021-11-01T12:58:28Z</time>
      </trkpt>
      <trkpt lat="43.59214" lon="3.7993">
        <ele>45.5</ele>
        <time>2021-11-01T12:58:38Z</time>
      </trkpt>
      <trkpt lat="43.59241" lon="3.79902">
        <ele>46.2</ele>
        <time>2021-11-01T12:58:48Z</time>
      </trkpt>
      <trkpt lat="43.59269" lon="3.79874">
        <ele>46.9</ele>
        <time>2021-11-01T12:58:58Z</time>
      </trkpt>
      <trkpt lat="43.59294" lon="3.79844">
        <ele>47.6</ele>
        <time>2021-11-01T12:59:08Z</time>
      </trkpt>
      <trkpt lat="43.5932" lon="3.79814">
        <ele>48.4</ele>
        <time>2021-11-01T12:59:18Z</time>
      </trkpt>
      <trkpt lat="43.59341" lon="3.79779">
        <ele>48.3</ele>
        <time>2021-11-01T12:59:28Z</time>
      </trkpt>
      <trkpt lat="43.59338" lon="3.79744">
        <ele>49.2</ele>
        <time>2021-11-01T12:59:38Z</time>
      </trkpt>
      <trkpt lat="43.59328" lon="3.79707">
        <ele>50.5</ele>
        <time>2021-11-01T12:59:48Z</time>
      </trkpt>
      <trkpt lat="43.59314" lon="3.79666">
        <ele>51.7</ele>
        <time>2021-11-01T12:59:58Z</time>
      </trkpt>
      <trkpt lat="43.59302" lon="3.79632">
        <ele>52.9</ele>
        <time>2021-11-01T13:00:08Z</time>
      </trkpt>
      <trkpt lat="43.59288" lon="3.79598">
        <ele>52.1</ele>
        <time>2021-11-01T13:00:18Z</time>
      </trkpt>
      <trkpt lat="43.59271" lon="3.79547">
        <ele>50.2</ele>
        <time>2021-11-01T13:00:28Z</time>
      </trkpt>
      <trkpt lat="43.59268" lon="3.79469">
        <ele>47.8</ele>
        <time>2021-11-01T13:00:38Z</time>
      </trkpt>
      <trkpt lat="43.59263" lon="3.79397">
        <ele>45.2</ele>
        <time>2021-11-01T13:00:48Z</time>
      </trkpt>
      <trkpt lat="43.59246" lon="3.79362">
        <ele>41.6</ele>
        <time>2021-11-01T13:00:58Z</time>
      </trkpt>
      <trkpt lat="43.59215" lon="3.79395">
        <ele>40.9</ele>
        <time>2021-11-01T13:01:08Z</time>
      </trkpt>
      <trkpt lat="43.59198" lon="3.79447">
        <ele>40</ele>
        <time>2021-11-01T13:01:18Z</time>
      </trkpt>
      <trkpt lat="43.5918" lon="3.79496">
        <ele>41.3</ele>
        <time>2021-11-01T13:01:28Z</time>
      </trkpt>
      <trkpt lat="43.59158" lon="3.79541">
        <ele>42.4</ele>
        <time>2021-11-01T13:01:38Z</time>
      </trkpt>
      <trkpt lat="43.59139" lon="3.7957">
        <ele>41.1</ele>
        <time>2021-11-01T13:01:48Z</time>
      </trkpt>
      <trkpt lat="43.59107" lon="3.79529">
        <ele>37.9</ele>
        <time>2021-11-01T13:01:58Z</time>
      </trkpt>
      <trkpt lat="43.5908" lon="3.79508">
        <ele>36.8</ele>
        <time>2021-11-01T13:02:08Z</time>
      </trkpt>
      <trkpt lat="43.59087" lon="3.79477">
        <ele>36.3</ele>
        <time>2021-11-01T13:02:18Z</time>
      </trkpt>
      <trkpt lat="43.591" lon="3.79435">
        <ele>35.6</ele>
        <time>2021-11-01T13:02:28Z</time>
      </trkpt>
      <trkpt lat="43.59108" lon="3.79392">
        <ele>35</ele>
        <time>2021-11-01T13:02:38Z</time>
      </trkpt>
      <trkpt lat="43.5911" lon="3.79345">
        <ele>34.4</ele>
        <time>2021-11-01T13:02:48Z</time>
      </trkpt>
      <trkpt lat="43.59123" lon="3.79321">
        <ele>34.5</ele>
        <time>2021-11-01T13:02:58Z</time>
      </trkpt>
      <trkpt lat="43.59137" lon="3.79287">
        <ele>35.4</ele>
        <time>2021-11-01T13:03:08Z</time>
      </trkpt>
      <trkpt lat="43.59152" lon="3.7925">
        <ele>36.5</ele>
        <time>2021-11-01T13:03:18Z</time>
      </trkpt>
      <trkpt lat="43.59161" lon="3.7922">
        <ele>37.9</ele>
        <time>2021-11-01T13:03:28Z</time>
      </trkpt>
      <trkpt lat="43.59164" lon="3.79194">
        <ele>40.3</ele>
        <time>2021-11-01T13:03:38Z</time>
      </trkpt>
      <trkpt lat="43.59162" lon="3.79171">
        <ele>41.9</ele>
        <time>2021-11-01T13:03:48Z</time>
      </trkpt>
      <trkpt lat="43.59163" lon="3.79149">
        <ele>42.8</ele>
        <time>2021-11-01T13:03:58Z</time>
      </trkpt>
      <trkpt lat="43.59166" lon="3.79122">
        <ele>43.6</ele>
        <time>2021-11-01T13:04:08Z</time>
      </trkpt>
      <trkpt lat="43.59171" lon="3.79091">
        <ele>44</ele>
        <time>2021-11-01T13:04:18Z</time>
      </trkpt>
      <trkpt lat="43.59179" lon="3.79055">
        <ele>44</ele>
        <time>2021-11-01T13:04:28Z</time>
      </trkpt>
      <trkpt lat="43.59185" lon="3.79015">
        <ele>43.2</ele>
        <time>2021-11-01T13:04:38Z</time>
      </trkpt>
      <trkpt lat="43.59164" lon="3.78972">
        <ele>41.9</ele>
        <time>2021-11-01T13:04:48Z</time>
      </trkpt>
      <trkpt lat="43.59143" lon="3.78933">
        <ele>41.5</ele>
        <time>2021-11-01T13:04:58Z</time>
      </trkpt>
      <trkpt lat="43.59127" lon="3.78888">
        <ele>41.4</ele>
        <time>2021-11-01T13:05:08Z</time>
      </trkpt>
      <trkpt lat="43.59109" lon="3.7886">
        <ele>43</ele>
        <time>2021-11-01T13:05:18Z</time>
      </trkpt>
      <trkpt lat="43.59097" lon="3.78826">
        <ele>43.8</ele>
        <time>2021-11-01T13:05:28Z</time>
      </trkpt>
      <trkpt lat="43.59087" lon="3.78797">
        <ele>45.9</ele>
        <time>2021-11-01T13:05:38Z</time>
      </trkpt>
      <trkpt lat="43.59079" lon="3.78765">
        <ele>47.5</ele>
        <time>2021-11-01T13:05:48Z</time>
      </trkpt>
      <trkpt lat="43.59067" lon="3.78738">
        <ele>49.5</ele>
        <time>2021-11-01T13:05:58Z</time>
      </trkpt>
      <trkpt lat="43.59069" lon="3.78708">
        <ele>51.1</ele>
        <time>2021-11-01T13:06:08Z</time>
      </trkpt>
      <trkpt lat="43.5908" lon="3.78677">
        <ele>50</ele>
        <time>2021-11-01T13:06:18Z</time>
      </trkpt>
      <trkpt lat="43.59094" lon="3.7864">
        <ele>50.4</ele>
        <time>2021-11-01T13:06:28Z</time>
      </trkpt>
      <trkpt lat="43.59102" lon="3.78611">
        <ele>51.9</ele>
        <time>2021-11-01T13:06:38Z</time>
      </trkpt>
      <trkpt lat="43.59107" lon="3.7858">
        <ele>51.3</ele>
        <time>2021-11-01T13:06:48Z</time>
      </trkpt>
      <trkpt lat="43.59106" lon="3.78545">
        <ele>54.7</ele>
        <time>2021-11-01T13:06:58Z</time>
      </trkpt>
      <trkpt lat="43.59107" lon="3.78512">
        <ele>54.8</ele>
        <time>2021-11-01T13:07:08Z</time>
      </trkpt>
      <trkpt lat="43.59102" lon="3.7848">
        <ele>56.7</ele>
        <time>2021-11-01T13:07:18Z</time>
      </trkpt>
      <trkpt lat="43.59104" lon="3.78451">
        <ele>56</ele>
        <time>2021-11-01T13:07:28Z</time>
      </trkpt>
      <trkpt lat="43.591" lon="3.7842">
        <ele>57.6</ele>
        <time>2021-11-01T13:07:38Z</time>
      </trkpt>
      <trkpt lat="43.59098" lon="3.78398">
        <ele>59.2</ele>
        <time>2021-11-01T13:07:48Z</time>
      </trkpt>
      <trkpt lat="43.59095" lon="3.78377">
        <ele>61.7</ele>
        <time>2021-11-01T13:07:58Z</time>
      </trkpt>
      <trkpt lat="43.59091" lon="3.78344">
        <ele>63.6</ele>
        <time>2021-11-01T13:08:08Z</time>
      </trkpt>
      <trkpt lat="43.59081" lon="3.78314">
        <ele>64.3</ele>
        <time>2021-11-01T13:08:18Z</time>
      </trkpt>
      <trkpt lat="43.59066" lon="3.78281">
        <ele>64.4</ele>
        <time>2021-11-01T13:08:28Z</time>
      </trkpt>
      <trkpt lat="43.59047" lon="3.78247">
        <ele>64.9</ele>
        <time>2021-11-01T13:08:38Z</time>
      </trkpt>
      <trkpt lat="43.59022" lon="3.78231">
        <ele>66.5</ele>
        <time>2021-11-01T13:08:48Z</time>
      </trkpt>
      <trkpt lat="43.59005" lon="3.78236">
        <ele>68.1</ele>
        <time>2021-11-01T13:08:58Z</time>
      </trkpt>
      <trkpt lat="43.58996" lon="3.78211">
        <ele>69.1</ele>
        <time>2021-11-01T13:09:08Z</time>
      </trkpt>
      <trkpt lat="43.58976" lon="3.78194">
        <ele>69.8</ele>
        <time>2021-11-01T13:09:18Z</time>
      </trkpt>
      <trkpt lat="43.58954" lon="3.7818">
        <ele>68.3</ele>
        <time>2021-11-01T13:09:28Z</time>
      </trkpt>
      <trkpt lat="43.58918" lon="3.7819">
        <ele>66.6</ele>
        <time>2021-11-01T13:09:38Z</time>
      </trkpt>
      <trkpt lat="43.58885" lon="3.78191">
        <ele>63.6</ele>
        <time>2021-11-01T13:09:48Z</time>
      </trkpt>
      <trkpt lat="43.58849" lon="3.78187">
        <ele>61.2</ele>
        <time>2021-11-01T13:09:58Z</time>
      </trkpt>
      <trkpt lat="43.5881" lon="3.78199">
        <ele>61.3</ele>
        <time>2021-11-01T13:10:08Z</time>
      </trkpt>
      <trkpt lat="43.58775" lon="3.78202">
        <ele>60.3</ele>
        <time>2021-11-01T13:10:18Z</time>
      </trkpt>
      <trkpt lat="43.58743" lon="3.78208">
        <ele>60.5</ele>
        <time>2021-11-01T13:10:28Z</time>
      </trkpt>
      <trkpt lat="43.58711" lon="3.78214">
        <ele>59.7</ele>
        <time>2021-11-01T13:10:38Z</time>
      </trkpt>
      <trkpt lat="43.58682" lon="3.78231">
        <ele>58.3</ele>
        <time>2021-11-01T13:10:48Z</time>
      </trkpt>
      <trkpt lat="43.5865" lon="3.7828">
        <ele>54.3</ele>
        <time>2021-11-01T13:10:58Z</time>
      </trkpt>
      <trkpt lat="43.58611" lon="3.78259">
        <ele>53</ele>
        <time>2021-11-01T13:11:08Z</time>
      </trkpt>
      <trkpt lat="43.58574" lon="3.78259">
        <ele>50.3</ele>
        <time>2021-11-01T13:11:18Z</time>
      </trkpt>
      <trkpt lat="43.58529" lon="3.78269">
        <ele>44.5</ele>
        <time>2021-11-01T13:11:28Z</time>
      </trkpt>
      <trkpt lat="43.58504" lon="3.78239">
        <ele>43.3</ele>
        <time>2021-11-01T13:11:38Z</time>
      </trkpt>
      <trkpt lat="43.58493" lon="3.78202">
        <ele>42</ele>
        <time>2021-11-01T13:11:48Z</time>
      </trkpt>
      <trkpt lat="43.58492" lon="3.78162">
        <ele>41.3</ele>
        <time>2021-11-01T13:11:58Z</time>
      </trkpt>
      <trkpt lat="43.58492" lon="3.78119">
        <ele>40.2</ele>
        <time>2021-11-01T13:12:08Z</time>
      </trkpt>
      <trkpt lat="43.58492" lon="3.78072">
        <ele>40</ele>
        <time>2021-11-01T13:12:18Z</time>
      </trkpt>
      <trkpt lat="43.58492" lon="3.7802">
        <ele>40</ele>
        <time>2021-11-01T13:12:28Z</time>
      </trkpt>
      <trkpt lat="43.58497" lon="3.77969">
        <ele>39.8</ele>
        <time>2021-11-01T13:12:38Z</time>
      </trkpt>
      <trkpt lat="43.58506" lon="3.7792">
        <ele>39.7</ele>
        <time>2021-11-01T13:12:48Z</time>
      </trkpt>
      <trkpt lat="43.58515" lon="3.7788">
        <ele>39.5</ele>
        <time>2021-11-01T13:15:58Z</time>
      </trkpt>
      <trkpt lat="43.58528" lon="3.77839">
        <ele>40</ele>
        <time>2021-11-01T13:16:18Z</time>
      </trkpt>
      <trkpt lat="43.58546" lon="3.77796">
        <ele>40.2</ele>
        <time>2021-11-01T13:16:28Z</time>
      </trkpt>
      <trkpt lat="43.58564" lon="3.77756">
        <ele>40.5</ele>
        <time>2021-11-01T13:16:38Z</time>
      </trkpt>
      <trkpt lat="43.5858" lon="3.77728">
        <ele>40.9</ele>
        <time>2021-11-01T13:17:48Z</time>
      </trkpt>
      <trkpt lat="43.58598" lon="3.77694">
        <ele>41.5</ele>
        <time>2021-11-01T13:18:08Z</time>
      </trkpt>
      <trkpt lat="43.58618" lon="3.77655">
        <ele>41.7</ele>
        <time>2021-11-01T13:18:18Z</time>
      </trkpt>
      <trkpt lat="43.58637" lon="3.77617">
        <ele>41.9</ele>
        <time>2021-11-01T13:18:28Z</time>
      </trkpt>
      <trkpt lat="43.58657" lon="3.77577">
        <ele>42.7</ele>
        <time>2021-11-01T13:18:38Z</time>
      </trkpt>
      <trkpt lat="43.58677" lon="3.77536">
        <ele>42.9</ele>
        <time>2021-11-01T13:18:48Z</time>
      </trkpt>
      <trkpt lat="43.58693" lon="3.77496">
        <ele>43.9</ele>
        <time>2021-11-01T13:18:58Z</time>
      </trkpt>
      <trkpt lat="43.58707" lon="3.77451">
        <ele>43.6</ele>
        <time>2021-11-01T13:19:08Z</time>
      </trkpt>
      <trkpt lat="43.58719" lon="3.77403">
        <ele>44.9</ele>
        <time>2021-11-01T13:19:18Z</time>
      </trkpt>
      <trkpt lat="43.58731" lon="3.77353">
        <ele>45.6</ele>
        <time>2021-11-01T13:19:28Z</time>
      </trkpt>
      <trkpt lat="43.58742" lon="3.77302">
        <ele>46.7</ele>
        <time>2021-11-01T13:19:38Z</time>
      </trkpt>
      <trkpt lat="43.58753" lon="3.77252">
        <ele>47.2</ele>
        <time>2021-11-01T13:19:48Z</time>
      </trkpt>
      <trkpt lat="43.58764" lon="3.77205">
        <ele>48</ele>
        <time>2021-11-01T13:19:58Z</time>
      </trkpt>
      <trkpt lat="43.58775" lon="3.77157">
        <ele>48.5</ele>
        <time>2021-11-01T13:20:08Z</time>
      </trkpt>
      <trkpt lat="43.58786" lon="3.77105">
        <ele>47.3</ele>
        <time>2021-11-01T13:20:18Z</time>
      </trkpt>
      <trkpt lat="43.58797" lon="3.77059">
        <ele>47.4</ele>
        <time>2021-11-01T13:20:28Z</time>
      </trkpt>
      <trkpt lat="43.58807" lon="3.77014">
        <ele>48</ele>
        <time>2021-11-01T13:20:38Z</time>
      </trkpt>
      <trkpt lat="43.58817" lon="3.76971">
        <ele>47.4</ele>
        <time>2021-11-01T13:20:48Z</time>
      </trkpt>
      <trkpt lat="43.58827" lon="3.76926">
        <ele>47.3</ele>
        <time>2021-11-01T13:20:58Z</time>
      </trkpt>
      <trkpt lat="43.58836" lon="3.7688">
        <ele>47.1</ele>
        <time>2021-11-01T13:21:08Z</time>
      </trkpt>
      <trkpt lat="43.58846" lon="3.76835">
        <ele>47.5</ele>
        <time>2021-11-01T13:21:18Z</time>
      </trkpt>
      <trkpt lat="43.5885" lon="3.76791">
        <ele>47.2</ele>
        <time>2021-11-01T13:21:28Z</time>
      </trkpt>
      <trkpt lat="43.58856" lon="3.76749">
        <ele>48.8</ele>
        <time>2021-11-01T13:21:38Z</time>
      </trkpt>
      <trkpt lat="43.58852" lon="3.76699">
        <ele>48.7</ele>
        <time>2021-11-01T13:21:48Z</time>
      </trkpt>
      <trkpt lat="43.58845" lon="3.76648">
        <ele>49</ele>
        <time>2021-11-01T13:21:58Z</time>
      </trkpt>
      <trkpt lat="43.58832" lon="3.76603">
        <ele>49</ele>
        <time>2021-11-01T13:22:08Z</time>
      </trkpt>
      <trkpt lat="43.58815" lon="3.76554">
        <ele>49.3</ele>
        <time>2021-11-01T13:22:18Z</time>
      </trkpt>
      <trkpt lat="43.58795" lon="3.7651">
        <ele>49.4</ele>
        <time>2021-11-01T13:22:28Z</time>
      </trkpt>
      <trkpt lat="43.58775" lon="3.76464">
        <ele>49.3</ele>
        <time>2021-11-01T13:22:38Z</time>
      </trkpt>
      <trkpt lat="43.58755" lon="3.76417">
        <ele>49.4</ele>
        <time>2021-11-01T13:22:48Z</time>
      </trkpt>
      <trkpt lat="43.58735" lon="3.76373">
        <ele>50</ele>
        <time>2021-11-01T13:22:58Z</time>
      </trkpt>
      <trkpt lat="43.58715" lon="3.7633">
        <ele>49.5</ele>
        <time>2021-11-01T13:23:08Z</time>
      </trkpt>
      <trkpt lat="43.58704" lon="3.76285">
        <ele>50.6</ele>
        <time>2021-11-01T13:23:38Z</time>
      </trkpt>
      <trkpt lat="43.58682" lon="3.76247">
        <ele>50.3</ele>
        <time>2021-11-01T13:23:58Z</time>
      </trkpt>
      <trkpt lat="43.58662" lon="3.76205">
        <ele>51.4</ele>
        <time>2021-11-01T13:24:08Z</time>
      </trkpt>
      <trkpt lat="43.5864" lon="3.76159">
        <ele>52</ele>
        <time>2021-11-01T13:24:18Z</time>
      </trkpt>
      <trkpt lat="43.58619" lon="3.76111">
        <ele>52.3</ele>
        <time>2021-11-01T13:24:28Z</time>
      </trkpt>
      <trkpt lat="43.58598" lon="3.76065">
        <ele>52.5</ele>
        <time>2021-11-01T13:24:38Z</time>
      </trkpt>
      <trkpt lat="43.58581" lon="3.76022">
        <ele>52.2</ele>
        <time>2021-11-01T13:24:48Z</time>
      </trkpt>
      <trkpt lat="43.58562" lon="3.75978">
        <ele>52.4</ele>
        <time>2021-11-01T13:24:58Z</time>
      </trkpt>
      <trkpt lat="43.58543" lon="3.75934">
        <ele>52.4</ele>
        <time>2021-11-01T13:25:08Z</time>
      </trkpt>
      <trkpt lat="43.58522" lon="3.7589">
        <ele>51.6</ele>
        <time>2021-11-01T13:25:18Z</time>
      </trkpt>
      <trkpt lat="43.58506" lon="3.75847">
        <ele>52.6</ele>
        <time>2021-11-01T13:25:28Z</time>
      </trkpt>
      <trkpt lat="43.58482" lon="3.75799">
        <ele>52.6</ele>
        <time>2021-11-01T13:25:38Z</time>
      </trkpt>
      <trkpt lat="43.58468" lon="3.75757">
        <ele>53</ele>
        <time>2021-11-01T13:25:48Z</time>
      </trkpt>
      <trkpt lat="43.58445" lon="3.75714">
        <ele>53.3</ele>
        <time>2021-11-01T13:25:58Z</time>
      </trkpt>
      <trkpt lat="43.58425" lon="3.75666">
        <ele>53.6</ele>
        <time>2021-11-01T13:26:08Z</time>
      </trkpt>
      <trkpt lat="43.58404" lon="3.75619">
        <ele>53.5</ele>
        <time>2021-11-01T13:26:18Z</time>
      </trkpt>
      <trkpt lat="43.58382" lon="3.75566">
        <ele>52.3</ele>
        <time>2021-11-01T13:26:28Z</time>
      </trkpt>
      <trkpt lat="43.58358" lon="3.75518">
        <ele>52.9</ele>
        <time>2021-11-01T13:26:38Z</time>
      </trkpt>
      <trkpt lat="43.58336" lon="3.75466">
        <ele>53</ele>
        <time>2021-11-01T13:26:48Z</time>
      </trkpt>
      <trkpt lat="43.58312" lon="3.75413">
        <ele>53.2</ele>
        <time>2021-11-01T13:26:58Z</time>
      </trkpt>
      <trkpt lat="43.5829" lon="3.7536">
        <ele>53.5</ele>
        <time>2021-11-01T13:27:08Z</time>
      </trkpt>
      <trkpt lat="43.58268" lon="3.75308">
        <ele>53.6</ele>
        <time>2021-11-01T13:27:18Z</time>
      </trkpt>
      <trkpt lat="43.58246" lon="3.75259">
        <ele>54.5</ele>
        <time>2021-11-01T13:27:28Z</time>
      </trkpt>
      <trkpt lat="43.58224" lon="3.7521">
        <ele>54.5</ele>
        <time>2021-11-01T13:27:38Z</time>
      </trkpt>
      <trkpt lat="43.58202" lon="3.7516">
        <ele>55.6</ele>
        <time>2021-11-01T13:27:48Z</time>
      </trkpt>
      <trkpt lat="43.5818" lon="3.7511">
        <ele>57</ele>
        <time>2021-11-01T13:27:58Z</time>
      </trkpt>
      <trkpt lat="43.58159" lon="3.75062">
        <ele>57.9</ele>
        <time>2021-11-01T13:28:08Z</time>
      </trkpt>
      <trkpt lat="43.58138" lon="3.75015">
        <ele>57</ele>
        <time>2021-11-01T13:28:18Z</time>
      </trkpt>
      <trkpt lat="43.58112" lon="3.74961">
        <ele>56.2</ele>
        <time>2021-11-01T13:28:28Z</time>
      </trkpt>
      <trkpt lat="43.58086" lon="3.7491">
        <ele>57.4</ele>
        <time>2021-11-01T13:28:38Z</time>
      </trkpt>
      <trkpt lat="43.5806" lon="3.74857">
        <ele>57.3</ele>
        <time>2021-11-01T13:28:48Z</time>
      </trkpt>
      <trkpt lat="43.58035" lon="3.74804">
        <ele>58.3</ele>
        <time>2021-11-01T13:28:58Z</time>
      </trkpt>
      <trkpt lat="43.58011" lon="3.74751">
        <ele>58.2</ele>
        <time>2021-11-01T13:29:08Z</time>
      </trkpt>
      <trkpt lat="43.57985" lon="3.74697">
        <ele>58.7</ele>
        <time>2021-11-01T13:29:18Z</time>
      </trkpt>
      <trkpt lat="43.5796" lon="3.74646">
        <ele>59.3</ele>
        <time>2021-11-01T13:29:28Z</time>
      </trkpt>
      <trkpt lat="43.57937" lon="3.74595">
        <ele>60.5</ele>
        <time>2021-11-01T13:29:38Z</time>
      </trkpt>
      <trkpt lat="43.57923" lon="3.74551">
        <ele>61.4</ele>
        <time>2021-11-01T13:29:48Z</time>
      </trkpt>
      <trkpt lat="43.57916" lon="3.74522">
        <ele>63.4</ele>
        <time>2021-11-01T13:29:58Z</time>
      </trkpt>
      <trkpt lat="43.57904" lon="3.74494">
        <ele>63.8</ele>
        <time>2021-11-01T13:30:08Z</time>
      </trkpt>
      <trkpt lat="43.57893" lon="3.74465">
        <ele>65.9</ele>
        <time>2021-11-01T13:30:18Z</time>
      </trkpt>
      <trkpt lat="43.57879" lon="3.74436">
        <ele>65.9</ele>
        <time>2021-11-01T13:30:28Z</time>
      </trkpt>
      <trkpt lat="43.57863" lon="3.7441">
        <ele>67.9</ele>
        <time>2021-11-01T13:30:38Z</time>
      </trkpt>
      <trkpt lat="43.57837" lon="3.74372">
        <ele>64.7</ele>
        <time>2021-11-01T13:30:48Z</time>
      </trkpt>
      <trkpt lat="43.57808" lon="3.7432">
        <ele>60.6</ele>
        <time>2021-11-01T13:30:58Z</time>
      </trkpt>
      <trkpt lat="43.5778" lon="3.74264">
        <ele>57.4</ele>
        <time>2021-11-01T13:31:08Z</time>
      </trkpt>
      <trkpt lat="43.57772" lon="3.74223">
        <ele>57.3</ele>
        <time>2021-11-01T13:31:18Z</time>
      </trkpt>
      <trkpt lat="43.57768" lon="3.74184">
        <ele>58</ele>
        <time>2021-11-01T13:31:28Z</time>
      </trkpt>
      <trkpt lat="43.57771" lon="3.74149">
        <ele>58.2</ele>
        <time>2021-11-01T13:31:38Z</time>
      </trkpt>
      <trkpt lat="43.57779" lon="3.74126">
        <ele>57.4</ele>
        <time>2021-11-01T13:31:48Z</time>
      </trkpt>
      <trkpt lat="43.5779" lon="3.74105">
        <ele>58.5</ele>
        <time>2021-11-01T13:31:58Z</time>
      </trkpt>
      <trkpt lat="43.57806" lon="3.74087">
        <ele>57.8</ele>
        <time>2021-11-01T13:32:08Z</time>
      </trkpt>
      <trkpt lat="43.57819" lon="3.74069">
        <ele>59.9</ele>
        <time>2021-11-01T13:32:18Z</time>
      </trkpt>
      <trkpt lat="43.57836" lon="3.74052">
        <ele>60.3</ele>
        <time>2021-11-01T13:32:28Z</time>
      </trkpt>
      <trkpt lat="43.57855" lon="3.74035">
        <ele>60.3</ele>
        <time>2021-11-01T13:32:38Z</time>
      </trkpt>
      <trkpt lat="43.5788" lon="3.74028">
        <ele>59</ele>
        <time>2021-11-01T13:32:48Z</time>
      </trkpt>
      <trkpt lat="43.57891" lon="3.74019">
        <ele>59.8</ele>
        <time>2021-11-01T13:32:58Z</time>
      </trkpt>
      <trkpt lat="43.57868" lon="3.74029">
        <ele>59.3</ele>
        <time>2021-11-01T13:33:08Z</time>
      </trkpt>
      <trkpt lat="43.57842" lon="3.74047">
        <ele>60.8</ele>
        <time>2021-11-01T13:33:18Z</time>
      </trkpt>
      <trkpt lat="43.57816" lon="3.7407">
        <ele>59.4</ele>
        <time>2021-11-01T13:33:28Z</time>
      </trkpt>
      <trkpt lat="43.57793" lon="3.741">
        <ele>58.7</ele>
        <time>2021-11-01T13:33:38Z</time>
      </trkpt>
      <trkpt lat="43.57779" lon="3.74123">
        <ele>57.2</ele>
        <time>2021-11-01T13:33:48Z</time>
      </trkpt>
      <trkpt lat="43.57764" lon="3.74141">
        <ele>57.5</ele>
        <time>2021-11-01T13:33:58Z</time>
      </trkpt>
      <trkpt lat="43.57748" lon="3.74176">
        <ele>56</ele>
        <time>2021-11-01T13:34:08Z</time>
      </trkpt>
      <trkpt lat="43.57749" lon="3.74218">
        <ele>55</ele>
        <time>2021-11-01T13:34:18Z</time>
      </trkpt>
      <trkpt lat="43.57752" lon="3.74253">
        <ele>54.7</ele>
        <time>2021-11-01T13:34:28Z</time>
      </trkpt>
      <trkpt lat="43.57746" lon="3.74274">
        <ele>57.9</ele>
        <time>2021-11-01T13:34:38Z</time>
      </trkpt>
      <trkpt lat="43.57737" lon="3.74285">
        <ele>56.6</ele>
        <time>2021-11-01T13:34:48Z</time>
      </trkpt>
      <trkpt lat="43.57726" lon="3.74277">
        <ele>55.6</ele>
        <time>2021-11-01T13:34:58Z</time>
      </trkpt>
      <trkpt lat="43.57715" lon="3.74269">
        <ele>56</ele>
        <time>2021-11-01T13:35:48Z</time>
      </trkpt>
      <trkpt lat="43.57699" lon="3.7425">
        <ele>56.5</ele>
        <time>2021-11-01T13:36:08Z</time>
      </trkpt>
      <trkpt lat="43.57679" lon="3.7424">
        <ele>57.4</ele>
        <time>2021-11-01T13:36:18Z</time>
      </trkpt>
      <trkpt lat="43.57659" lon="3.74233">
        <ele>57.6</ele>
        <time>2021-11-01T13:36:28Z</time>
      </trkpt>
      <trkpt lat="43.57646" lon="3.74219">
        <ele>58.2</ele>
        <time>2021-11-01T13:36:38Z</time>
      </trkpt>
      <trkpt lat="43.57653" lon="3.74192">
        <ele>60.2</ele>
        <time>2021-11-01T13:36:48Z</time>
      </trkpt>
      <trkpt lat="43.57643" lon="3.74169">
        <ele>61.3</ele>
        <time>2021-11-01T13:36:58Z</time>
      </trkpt>
      <trkpt lat="43.57625" lon="3.74145">
        <ele>62.8</ele>
        <time>2021-11-01T13:37:08Z</time>
      </trkpt>
      <trkpt lat="43.576" lon="3.74118">
        <ele>63.3</ele>
        <time>2021-11-01T13:37:18Z</time>
      </trkpt>
      <trkpt lat="43.57573" lon="3.74087">
        <ele>62.5</ele>
        <time>2021-11-01T13:37:28Z</time>
      </trkpt>
      <trkpt lat="43.57544" lon="3.74057">
        <ele>62.5</ele>
        <time>2021-11-01T13:37:38Z</time>
      </trkpt>
      <trkpt lat="43.57515" lon="3.74023">
        <ele>62.1</ele>
        <time>2021-11-01T13:37:48Z</time>
      </trkpt>
      <trkpt lat="43.57487" lon="3.7399">
        <ele>61.9</ele>
        <time>2021-11-01T13:37:58Z</time>
      </trkpt>
      <trkpt lat="43.57461" lon="3.73953">
        <ele>61.9</ele>
        <time>2021-11-01T13:38:08Z</time>
      </trkpt>
      <trkpt lat="43.57441" lon="3.73919">
        <ele>61.7</ele>
        <time>2021-11-01T13:38:18Z</time>
      </trkpt>
      <trkpt lat="43.57417" lon="3.73878">
        <ele>61.4</ele>
        <time>2021-11-01T13:38:28Z</time>
      </trkpt>
      <trkpt lat="43.57394" lon="3.73836">
        <ele>61.1</ele>
        <time>2021-11-01T13:38:38Z</time>
      </trkpt>
      <trkpt lat="43.57371" lon="3.73793">
        <ele>61.5</ele>
        <time>2021-11-01T13:38:48Z</time>
      </trkpt>
      <trkpt lat="43.57346" lon="3.7375">
        <ele>62.9</ele>
        <time>2021-11-01T13:38:58Z</time>
      </trkpt>
      <trkpt lat="43.57322" lon="3.73706">
        <ele>62.8</ele>
        <time>2021-11-01T13:39:08Z</time>
      </trkpt>
      <trkpt lat="43.57296" lon="3.73662">
        <ele>62.4</ele>
        <time>2021-11-01T13:39:18Z</time>
      </trkpt>
      <trkpt lat="43.57274" lon="3.73617">
        <ele>62.5</ele>
        <time>2021-11-01T13:39:28Z</time>
      </trkpt>
      <trkpt lat="43.57248" lon="3.73575">
        <ele>61.8</ele>
        <time>2021-11-01T13:39:38Z</time>
      </trkpt>
      <trkpt lat="43.57221" lon="3.73552">
        <ele>60</ele>
        <time>2021-11-01T13:39:48Z</time>
      </trkpt>
      <trkpt lat="43.5719" lon="3.73551">
        <ele>56.6</ele>
        <time>2021-11-01T13:39:58Z</time>
      </trkpt>
      <trkpt lat="43.57213" lon="3.73549">
        <ele>59.1</ele>
        <time>2021-11-01T13:41:08Z</time>
      </trkpt>
      <trkpt lat="43.57228" lon="3.73557">
        <ele>60.4</ele>
        <time>2021-11-01T13:41:28Z</time>
      </trkpt>
      <trkpt lat="43.5724" lon="3.73549">
        <ele>61.4</ele>
        <time>2021-11-01T13:41:38Z</time>
      </trkpt>
      <trkpt lat="43.57225" lon="3.73526">
        <ele>60.9</ele>
        <time>2021-11-01T13:41:48Z</time>
      </trkpt>
      <trkpt lat="43.57211" lon="3.73505">
        <ele>57.8</ele>
        <time>2021-11-01T13:41:58Z</time>
      </trkpt>
      <trkpt lat="43.57203" lon="3.73486">
        <ele>58.5</ele>
        <time>2021-11-01T13:42:08Z</time>
      </trkpt>
      <trkpt lat="43.57192" lon="3.73467">
        <ele>60.6</ele>
        <time>2021-11-01T13:42:18Z</time>
      </trkpt>
      <trkpt lat="43.57179" lon="3.73445">
        <ele>60</ele>
        <time>2021-11-01T13:42:28Z</time>
      </trkpt>
      <trkpt lat="43.5718" lon="3.73425">
        <ele>61.7</ele>
        <time>2021-11-01T13:42:38Z</time>
      </trkpt>
      <trkpt lat="43.572" lon="3.7344">
        <ele>60.1</ele>
        <time>2021-11-01T13:42:48Z</time>
      </trkpt>
      <trkpt lat="43.57225" lon="3.73444">
        <ele>58</ele>
        <time>2021-11-01T13:42:58Z</time>
      </trkpt>
      <trkpt lat="43.57221" lon="3.73461">
        <ele>57.5</ele>
        <time>2021-11-01T13:43:08Z</time>
      </trkpt>
      <trkpt lat="43.5722" lon="3.7349">
        <ele>57.7</ele>
        <time>2021-11-01T13:43:18Z</time>
      </trkpt>
      <trkpt lat="43.57205" lon="3.73506">
        <ele>57.5</ele>
        <time>2021-11-01T13:43:28Z</time>
      </trkpt>
      <trkpt lat="43.57221" lon="3.73484">
        <ele>57.5</ele>
        <time>2021-11-01T13:44:08Z</time>
      </trkpt>
      <trkpt lat="43.57222" lon="3.73457">
        <ele>57.6</ele>
        <time>2021-11-01T13:44:28Z</time>
      </trkpt>
      <trkpt lat="43.57232" lon="3.73438">
        <ele>58.5</ele>
        <time>2021-11-01T13:44:38Z</time>
      </trkpt>
      <trkpt lat="43.57245" lon="3.73416">
        <ele>59.4</ele>
        <time>2021-11-01T13:44:48Z</time>
      </trkpt>
      <trkpt lat="43.57258" lon="3.73395">
        <ele>60.1</ele>
        <time>2021-11-01T13:44:58Z</time>
      </trkpt>
      <trkpt lat="43.57275" lon="3.73374">
        <ele>59.8</ele>
        <time>2021-11-01T13:45:08Z</time>
      </trkpt>
      <trkpt lat="43.57291" lon="3.73349">
        <ele>60.7</ele>
        <time>2021-11-01T13:45:18Z</time>
      </trkpt>
      <trkpt lat="43.57303" lon="3.73319">
        <ele>60.6</ele>
        <time>2021-11-01T13:45:28Z</time>
      </trkpt>
      <trkpt lat="43.57315" lon="3.73285">
        <ele>62.6</ele>
        <time>2021-11-01T13:45:38Z</time>
      </trkpt>
      <trkpt lat="43.57322" lon="3.73252">
        <ele>63.4</ele>
        <time>2021-11-01T13:45:48Z</time>
      </trkpt>
      <trkpt lat="43.57335" lon="3.73225">
        <ele>62.7</ele>
        <time>2021-11-01T13:45:58Z</time>
      </trkpt>
      <trkpt lat="43.57349" lon="3.73199">
        <ele>64.2</ele>
        <time>2021-11-01T13:46:08Z</time>
      </trkpt>
      <trkpt lat="43.57363" lon="3.73172">
        <ele>63.6</ele>
        <time>2021-11-01T13:46:18Z</time>
      </trkpt>
      <trkpt lat="43.57364" lon="3.7314">
        <ele>64.9</ele>
        <time>2021-11-01T13:46:28Z</time>
      </trkpt>
      <trkpt lat="43.57356" lon="3.73109">
        <ele>65.4</ele>
        <time>2021-11-01T13:46:38Z</time>
      </trkpt>
      <trkpt lat="43.57343" lon="3.73078">
        <ele>67.1</ele>
        <time>2021-11-01T13:46:48Z</time>
      </trkpt>
      <trkpt lat="43.57334" lon="3.73048">
        <ele>66.7</ele>
        <time>2021-11-01T13:46:58Z</time>
      </trkpt>
      <trkpt lat="43.57328" lon="3.73014">
        <ele>67.3</ele>
        <time>2021-11-01T13:47:08Z</time>
      </trkpt>
      <trkpt lat="43.57322" lon="3.72982">
        <ele>68.6</ele>
        <time>2021-11-01T13:47:18Z</time>
      </trkpt>
      <trkpt lat="43.57321" lon="3.72957">
        <ele>69.6</ele>
        <time>2021-11-01T13:47:28Z</time>
      </trkpt>
      <trkpt lat="43.57335" lon="3.72934">
        <ele>69.4</ele>
        <time>2021-11-01T13:47:38Z</time>
      </trkpt>
      <trkpt lat="43.57351" lon="3.72905">
        <ele>70</ele>
        <time>2021-11-01T13:47:48Z</time>
      </trkpt>
      <trkpt lat="43.57366" lon="3.72881">
        <ele>70.3</ele>
        <time>2021-11-01T13:47:58Z</time>
      </trkpt>
      <trkpt lat="43.57386" lon="3.72859">
        <ele>71</ele>
        <time>2021-11-01T13:48:08Z</time>
      </trkpt>
      <trkpt lat="43.57407" lon="3.72842">
        <ele>71.7</ele>
        <time>2021-11-01T13:48:18Z</time>
      </trkpt>
      <trkpt lat="43.57428" lon="3.72827">
        <ele>71.8</ele>
        <time>2021-11-01T13:48:28Z</time>
      </trkpt>
      <trkpt lat="43.57449" lon="3.72813">
        <ele>72.4</ele>
        <time>2021-11-01T13:48:38Z</time>
      </trkpt>
      <trkpt lat="43.57473" lon="3.72796">
        <ele>72.5</ele>
        <time>2021-11-01T13:48:48Z</time>
      </trkpt>
      <trkpt lat="43.57491" lon="3.72782">
        <ele>73.8</ele>
        <time>2021-11-01T13:48:58Z</time>
      </trkpt>
      <trkpt lat="43.5751" lon="3.7277">
        <ele>74.7</ele>
        <time>2021-11-01T13:49:08Z</time>
      </trkpt>
      <trkpt lat="43.57522" lon="3.72742">
        <ele>74.7</ele>
        <time>2021-11-01T13:49:18Z</time>
      </trkpt>
      <trkpt lat="43.57526" lon="3.7271">
        <ele>74.4</ele>
        <time>2021-11-01T13:49:28Z</time>
      </trkpt>
      <trkpt lat="43.57524" lon="3.72677">
        <ele>75.6</ele>
        <time>2021-11-01T13:49:38Z</time>
      </trkpt>
      <trkpt lat="43.57518" lon="3.72648">
        <ele>77.2</ele>
        <time>2021-11-01T13:49:48Z</time>
      </trkpt>
      <trkpt lat="43.57513" lon="3.7262">
        <ele>77.4</ele>
        <time>2021-11-01T13:49:58Z</time>
      </trkpt>
      <trkpt lat="43.57504" lon="3.72593">
        <ele>77.5</ele>
        <time>2021-11-01T13:50:08Z</time>
      </trkpt>
      <trkpt lat="43.57492" lon="3.72567">
        <ele>79.5</ele>
        <time>2021-11-01T13:50:18Z</time>
      </trkpt>
      <trkpt lat="43.57477" lon="3.72539">
        <ele>81</ele>
        <time>2021-11-01T13:50:28Z</time>
      </trkpt>
      <trkpt lat="43.5746" lon="3.72529">
        <ele>81</ele>
        <time>2021-11-01T13:50:38Z</time>
      </trkpt>
      <trkpt lat="43.57443" lon="3.72517">
        <ele>81.9</ele>
        <time>2021-11-01T13:50:48Z</time>
      </trkpt>
      <trkpt lat="43.57429" lon="3.725">
        <ele>83</ele>
        <time>2021-11-01T13:50:58Z</time>
      </trkpt>
      <trkpt lat="43.57418" lon="3.72481">
        <ele>83.7</ele>
        <time>2021-11-01T13:51:08Z</time>
      </trkpt>
      <trkpt lat="43.57404" lon="3.72465">
        <ele>84.9</ele>
        <time>2021-11-01T13:51:18Z</time>
      </trkpt>
      <trkpt lat="43.57392" lon="3.72446">
        <ele>85.2</ele>
        <time>2021-11-01T13:51:28Z</time>
      </trkpt>
      <trkpt lat="43.57379" lon="3.72428">
        <ele>87.3</ele>
        <time>2021-11-01T13:51:38Z</time>
      </trkpt>
      <trkpt lat="43.57366" lon="3.72409">
        <ele>87.5</ele>
        <time>2021-11-01T13:51:48Z</time>
      </trkpt>
      <trkpt lat="43.57354" lon="3.7239">
        <ele>88.8</ele>
        <time>2021-11-01T13:51:58Z</time>
      </trkpt>
      <trkpt lat="43.57345" lon="3.7237">
        <ele>89.9</ele>
        <time>2021-11-01T13:52:08Z</time>
      </trkpt>
      <trkpt lat="43.57345" lon="3.72353">
        <ele>90.6</ele>
        <time>2021-11-01T13:52:18Z</time>
      </trkpt>
      <trkpt lat="43.57346" lon="3.7234">
        <ele>91.5</ele>
        <time>2021-11-01T13:55:18Z</time>
      </trkpt>
      <trkpt lat="43.57346" lon="3.72319">
        <ele>92.8</ele>
        <time>2021-11-01T13:55:38Z</time>
      </trkpt>
      <trkpt lat="43.57338" lon="3.723">
        <ele>94.1</ele>
        <time>2021-11-01T13:55:48Z</time>
      </trkpt>
      <trkpt lat="43.57328" lon="3.72279">
        <ele>94.6</ele>
        <time>2021-11-01T13:55:58Z</time>
      </trkpt>
      <trkpt lat="43.57315" lon="3.72254">
        <ele>94.8</ele>
        <time>2021-11-01T13:56:08Z</time>
      </trkpt>
      <trkpt lat="43.57302" lon="3.72224">
        <ele>95.1</ele>
        <time>2021-11-01T13:56:18Z</time>
      </trkpt>
      <trkpt lat="43.57288" lon="3.72197">
        <ele>96</ele>
        <time>2021-11-01T13:56:28Z</time>
      </trkpt>
      <trkpt lat="43.57268" lon="3.72181">
        <ele>97.4</ele>
        <time>2021-11-01T13:56:38Z</time>
      </trkpt>
      <trkpt lat="43.57256" lon="3.72159">
        <ele>98.8</ele>
        <time>2021-11-01T13:56:48Z</time>
      </trkpt>
      <trkpt lat="43.57241" lon="3.72138">
        <ele>100.3</ele>
        <time>2021-11-01T13:56:58Z</time>
      </trkpt>
      <trkpt lat="43.57222" lon="3.72119">
        <ele>101</ele>
        <time>2021-11-01T13:57:08Z</time>
      </trkpt>
      <trkpt lat="43.57209" lon="3.72096">
        <ele>101.2</ele>
        <time>2021-11-01T13:57:18Z</time>
      </trkpt>
      <trkpt lat="43.57214" lon="3.72061">
        <ele>100.8</ele>
        <time>2021-11-01T13:57:28Z</time>
      </trkpt>
      <trkpt lat="43.57201" lon="3.72018">
        <ele>99.7</ele>
        <time>2021-11-01T13:57:38Z</time>
      </trkpt>
      <trkpt lat="43.57207" lon="3.71996">
        <ele>99.5</ele>
        <time>2021-11-01T13:57:48Z</time>
      </trkpt>
      <trkpt lat="43.57219" lon="3.71979">
        <ele>99.9</ele>
        <time>2021-11-01T13:58:08Z</time>
      </trkpt>
      <trkpt lat="43.57247" lon="3.71975">
        <ele>99.2</ele>
        <time>2021-11-01T13:58:28Z</time>
      </trkpt>
      <trkpt lat="43.57269" lon="3.71966">
        <ele>99.5</ele>
        <time>2021-11-01T13:58:38Z</time>
      </trkpt>
      <trkpt lat="43.57292" lon="3.71956">
        <ele>99.9</ele>
        <time>2021-11-01T13:58:48Z</time>
      </trkpt>
      <trkpt lat="43.57314" lon="3.71934">
        <ele>100.3</ele>
        <time>2021-11-01T13:58:58Z</time>
      </trkpt>
      <trkpt lat="43.57337" lon="3.71917">
        <ele>101.1</ele>
        <time>2021-11-01T13:59:08Z</time>
      </trkpt>
      <trkpt lat="43.57361" lon="3.719">
        <ele>101.4</ele>
        <time>2021-11-01T13:59:18Z</time>
      </trkpt>
      <trkpt lat="43.57384" lon="3.71881">
        <ele>101</ele>
        <time>2021-11-01T13:59:28Z</time>
      </trkpt>
      <trkpt lat="43.57402" lon="3.71874">
        <ele>101.7</ele>
        <time>2021-11-01T13:59:38Z</time>
      </trkpt>
      <trkpt lat="43.57419" lon="3.71889">
        <ele>102.1</ele>
        <time>2021-11-01T13:59:48Z</time>
      </trkpt>
      <trkpt lat="43.57428" lon="3.71917">
        <ele>102.4</ele>
        <time>2021-11-01T13:59:58Z</time>
      </trkpt>
      <trkpt lat="43.57454" lon="3.71926">
        <ele>103</ele>
        <time>2021-11-01T14:00:08Z</time>
      </trkpt>
      <trkpt lat="43.57483" lon="3.71934">
        <ele>103.1</ele>
        <time>2021-11-01T14:00:18Z</time>
      </trkpt>
      <trkpt lat="43.57513" lon="3.71943">
        <ele>103.1</ele>
        <time>2021-11-01T14:00:28Z</time>
      </trkpt>
      <trkpt lat="43.57543" lon="3.71953">
        <ele>103.1</ele>
        <time>2021-11-01T14:00:38Z</time>
      </trkpt>
      <trkpt lat="43.57578" lon="3.71967">
        <ele>102.4</ele>
        <time>2021-11-01T14:00:48Z</time>
      </trkpt>
      <trkpt lat="43.57623" lon="3.71984">
        <ele>100.5</ele>
        <time>2021-11-01T14:00:58Z</time>
      </trkpt>
      <trkpt lat="43.57685" lon="3.71985">
        <ele>95.3</ele>
        <time>2021-11-01T14:01:08Z</time>
      </trkpt>
      <trkpt lat="43.57759" lon="3.72046">
        <ele>95.2</ele>
        <time>2021-11-01T14:01:18Z</time>
      </trkpt>
      <trkpt lat="43.57798" lon="3.72103">
        <ele>99.5</ele>
        <time>2021-11-01T14:01:28Z</time>
      </trkpt>
      <trkpt lat="43.57831" lon="3.72143">
        <ele>102.8</ele>
        <time>2021-11-01T14:01:38Z</time>
      </trkpt>
      <trkpt lat="43.57859" lon="3.72174">
        <ele>104.9</ele>
        <time>2021-11-01T14:01:48Z</time>
      </trkpt>
      <trkpt lat="43.57886" lon="3.72201">
        <ele>106.1</ele>
        <time>2021-11-01T14:01:58Z</time>
      </trkpt>
      <trkpt lat="43.57912" lon="3.72227">
        <ele>107</ele>
        <time>2021-11-01T14:02:08Z</time>
      </trkpt>
      <trkpt lat="43.57941" lon="3.72247">
        <ele>107.9</ele>
        <time>2021-11-01T14:02:18Z</time>
      </trkpt>
      <trkpt lat="43.5797" lon="3.72261">
        <ele>108.9</ele>
        <time>2021-11-01T14:02:28Z</time>
      </trkpt>
      <trkpt lat="43.57998" lon="3.72273">
        <ele>110.9</ele>
        <time>2021-11-01T14:02:38Z</time>
      </trkpt>
      <trkpt lat="43.58024" lon="3.72286">
        <ele>111.8</ele>
        <time>2021-11-01T14:02:48Z</time>
      </trkpt>
      <trkpt lat="43.58051" lon="3.72299">
        <ele>113.7</ele>
        <time>2021-11-01T14:02:58Z</time>
      </trkpt>
      <trkpt lat="43.58074" lon="3.7231">
        <ele>115.4</ele>
        <time>2021-11-01T14:03:08Z</time>
      </trkpt>
      <trkpt lat="43.58099" lon="3.72318">
        <ele>117.1</ele>
        <time>2021-11-01T14:03:18Z</time>
      </trkpt>
      <trkpt lat="43.58125" lon="3.72318">
        <ele>118.8</ele>
        <time>2021-11-01T14:03:28Z</time>
      </trkpt>
      <trkpt lat="43.5815" lon="3.72317">
        <ele>120.2</ele>
        <time>2021-11-01T14:03:38Z</time>
      </trkpt>
      <trkpt lat="43.58172" lon="3.72309">
        <ele>121.4</ele>
        <time>2021-11-01T14:03:48Z</time>
      </trkpt>
      <trkpt lat="43.58194" lon="3.723">
        <ele>123</ele>
        <time>2021-11-01T14:03:58Z</time>
      </trkpt>
      <trkpt lat="43.5822" lon="3.72293">
        <ele>123.9</ele>
        <time>2021-11-01T14:04:08Z</time>
      </trkpt>
      <trkpt lat="43.58248" lon="3.72286">
        <ele>124.7</ele>
        <time>2021-11-01T14:04:18Z</time>
      </trkpt>
      <trkpt lat="43.58278" lon="3.72279">
        <ele>125</ele>
        <time>2021-11-01T14:04:28Z</time>
      </trkpt>
      <trkpt lat="43.58316" lon="3.72271">
        <ele>125</ele>
        <time>2021-11-01T14:04:38Z</time>
      </trkpt>
      <trkpt lat="43.58354" lon="3.72268">
        <ele>125</ele>
        <time>2021-11-01T14:04:48Z</time>
      </trkpt>
      <trkpt lat="43.58395" lon="3.72276">
        <ele>125</ele>
        <time>2021-11-01T14:04:58Z</time>
      </trkpt>
      <trkpt lat="43.58446" lon="3.72288">
        <ele>123.6</ele>
        <time>2021-11-01T14:05:08Z</time>
      </trkpt>
      <trkpt lat="43.58504" lon="3.72297">
        <ele>122</ele>
        <time>2021-11-01T14:05:18Z</time>
      </trkpt>
      <trkpt lat="43.58558" lon="3.72299">
        <ele>121</ele>
        <time>2021-11-01T14:05:28Z</time>
      </trkpt>
      <trkpt lat="43.58617" lon="3.72301">
        <ele>120</ele>
        <time>2021-11-01T14:05:38Z</time>
      </trkpt>
      <trkpt lat="43.58672" lon="3.72305">
        <ele>118.8</ele>
        <time>2021-11-01T14:05:48Z</time>
      </trkpt>
      <trkpt lat="43.58733" lon="3.72334">
        <ele>115.2</ele>
        <time>2021-11-01T14:05:58Z</time>
      </trkpt>
      <trkpt lat="43.58808" lon="3.7238">
        <ele>111.3</ele>
        <time>2021-11-01T14:06:08Z</time>
      </trkpt>
      <trkpt lat="43.58872" lon="3.72406">
        <ele>112.4</ele>
        <time>2021-11-01T14:06:18Z</time>
      </trkpt>
      <trkpt lat="43.58918" lon="3.72423">
        <ele>113</ele>
        <time>2021-11-01T14:06:28Z</time>
      </trkpt>
      <trkpt lat="43.5896" lon="3.7244">
        <ele>114.1</ele>
        <time>2021-11-01T14:06:38Z</time>
      </trkpt>
      <trkpt lat="43.58998" lon="3.72456">
        <ele>114.5</ele>
        <time>2021-11-01T14:06:48Z</time>
      </trkpt>
      <trkpt lat="43.59039" lon="3.72471">
        <ele>115</ele>
        <time>2021-11-01T14:06:58Z</time>
      </trkpt>
      <trkpt lat="43.59081" lon="3.72476">
        <ele>115.7</ele>
        <time>2021-11-01T14:07:08Z</time>
      </trkpt>
      <trkpt lat="43.59121" lon="3.72485">
        <ele>116.4</ele>
        <time>2021-11-01T14:07:18Z</time>
      </trkpt>
      <trkpt lat="43.59158" lon="3.72505">
        <ele>117.3</ele>
        <time>2021-11-01T14:07:28Z</time>
      </trkpt>
      <trkpt lat="43.59193" lon="3.72533">
        <ele>118.5</ele>
        <time>2021-11-01T14:07:38Z</time>
      </trkpt>
      <trkpt lat="43.59229" lon="3.72562">
        <ele>119.4</ele>
        <time>2021-11-01T14:07:48Z</time>
      </trkpt>
      <trkpt lat="43.59265" lon="3.72588">
        <ele>120.8</ele>
        <time>2021-11-01T14:07:58Z</time>
      </trkpt>
      <trkpt lat="43.59301" lon="3.72609">
        <ele>121.8</ele>
        <time>2021-11-01T14:08:08Z</time>
      </trkpt>
      <trkpt lat="43.59337" lon="3.72626">
        <ele>122.8</ele>
        <time>2021-11-01T14:08:18Z</time>
      </trkpt>
      <trkpt lat="43.59372" lon="3.72643">
        <ele>124.6</ele>
        <time>2021-11-01T14:08:28Z</time>
      </trkpt>
      <trkpt lat="43.59405" lon="3.72661">
        <ele>126.1</ele>
        <time>2021-11-01T14:08:38Z</time>
      </trkpt>
      <trkpt lat="43.59433" lon="3.72682">
        <ele>128.2</ele>
        <time>2021-11-01T14:08:48Z</time>
      </trkpt>
      <trkpt lat="43.59459" lon="3.72703">
        <ele>129.6</ele>
        <time>2021-11-01T14:08:58Z</time>
      </trkpt>
      <trkpt lat="43.59477" lon="3.72717">
        <ele>131</ele>
        <time>2021-11-01T14:09:18Z</time>
      </trkpt>
      <trkpt lat="43.59495" lon="3.72731">
        <ele>131.9</ele>
        <time>2021-11-01T14:09:38Z</time>
      </trkpt>
      <trkpt lat="43.59514" lon="3.72744">
        <ele>132.7</ele>
        <time>2021-11-01T14:09:48Z</time>
      </trkpt>
      <trkpt lat="43.59535" lon="3.7277">
        <ele>132.8</ele>
        <time>2021-11-01T14:09:58Z</time>
      </trkpt>
      <trkpt lat="43.5956" lon="3.72773">
        <ele>134.5</ele>
        <time>2021-11-01T14:10:08Z</time>
      </trkpt>
      <trkpt lat="43.59581" lon="3.7276">
        <ele>135.9</ele>
        <time>2021-11-01T14:10:18Z</time>
      </trkpt>
      <trkpt lat="43.59604" lon="3.72758">
        <ele>137.5</ele>
        <time>2021-11-01T14:10:28Z</time>
      </trkpt>
      <trkpt lat="43.59623" lon="3.72747">
        <ele>139.1</ele>
        <time>2021-11-01T14:10:38Z</time>
      </trkpt>
      <trkpt lat="43.59639" lon="3.72734">
        <ele>140.6</ele>
        <time>2021-11-01T14:10:48Z</time>
      </trkpt>
      <trkpt lat="43.59641" lon="3.72712">
        <ele>141.8</ele>
        <time>2021-11-01T14:10:58Z</time>
      </trkpt>
      <trkpt lat="43.59638" lon="3.72693">
        <ele>143.1</ele>
        <time>2021-11-01T14:11:08Z</time>
      </trkpt>
      <trkpt lat="43.59631" lon="3.72678">
        <ele>143.9</ele>
        <time>2021-11-01T14:11:18Z</time>
      </trkpt>
      <trkpt lat="43.59613" lon="3.7267">
        <ele>144.8</ele>
        <time>2021-11-01T14:11:28Z</time>
      </trkpt>
      <trkpt lat="43.59618" lon="3.7265">
        <ele>145.4</ele>
        <time>2021-11-01T14:11:38Z</time>
      </trkpt>
      <trkpt lat="43.59625" lon="3.72624">
        <ele>145.5</ele>
        <time>2021-11-01T14:11:48Z</time>
      </trkpt>
      <trkpt lat="43.59626" lon="3.72587">
        <ele>145.4</ele>
        <time>2021-11-01T14:11:58Z</time>
      </trkpt>
      <trkpt lat="43.59646" lon="3.72569">
        <ele>143.7</ele>
        <time>2021-11-01T14:12:08Z</time>
      </trkpt>
      <trkpt lat="43.59657" lon="3.72555">
        <ele>143.3</ele>
        <time>2021-11-01T14:12:18Z</time>
      </trkpt>
      <trkpt lat="43.59675" lon="3.72525">
        <ele>143.1</ele>
        <time>2021-11-01T14:12:28Z</time>
      </trkpt>
      <trkpt lat="43.59682" lon="3.72491">
        <ele>144.6</ele>
        <time>2021-11-01T14:12:38Z</time>
      </trkpt>
      <trkpt lat="43.59687" lon="3.72463">
        <ele>146.3</ele>
        <time>2021-11-01T14:12:48Z</time>
      </trkpt>
      <trkpt lat="43.59698" lon="3.72436">
        <ele>147.2</ele>
        <time>2021-11-01T14:12:58Z</time>
      </trkpt>
      <trkpt lat="43.597" lon="3.72403">
        <ele>148.8</ele>
        <time>2021-11-01T14:13:08Z</time>
      </trkpt>
      <trkpt lat="43.59712" lon="3.72379">
        <ele>149.7</ele>
        <time>2021-11-01T14:13:18Z</time>
      </trkpt>
      <trkpt lat="43.5973" lon="3.7237">
        <ele>150.4</ele>
        <time>2021-11-01T14:13:28Z</time>
      </trkpt>
      <trkpt lat="43.59734" lon="3.72353">
        <ele>151.8</ele>
        <time>2021-11-01T14:13:38Z</time>
      </trkpt>
      <trkpt lat="43.59732" lon="3.72327">
        <ele>153.1</ele>
        <time>2021-11-01T14:13:48Z</time>
      </trkpt>
      <trkpt lat="43.59728" lon="3.723">
        <ele>153.6</ele>
        <time>2021-11-01T14:13:58Z</time>
      </trkpt>
      <trkpt lat="43.59724" lon="3.72271">
        <ele>154.5</ele>
        <time>2021-11-01T14:14:08Z</time>
      </trkpt>
      <trkpt lat="43.59723" lon="3.7224">
        <ele>155.1</ele>
        <time>2021-11-01T14:14:18Z</time>
      </trkpt>
      <trkpt lat="43.59723" lon="3.72208">
        <ele>155.6</ele>
        <time>2021-11-01T14:14:28Z</time>
      </trkpt>
      <trkpt lat="43.59721" lon="3.72177">
        <ele>156.6</ele>
        <time>2021-11-01T14:14:38Z</time>
      </trkpt>
      <trkpt lat="43.59718" lon="3.72154">
        <ele>158</ele>
        <time>2021-11-01T14:14:48Z</time>
      </trkpt>
      <trkpt lat="43.59716" lon="3.72135">
        <ele>159.6</ele>
        <time>2021-11-01T14:14:58Z</time>
      </trkpt>
      <trkpt lat="43.59718" lon="3.72116">
        <ele>161.4</ele>
        <time>2021-11-01T14:15:08Z</time>
      </trkpt>
      <trkpt lat="43.59724" lon="3.72097">
        <ele>162.9</ele>
        <time>2021-11-01T14:15:18Z</time>
      </trkpt>
      <trkpt lat="43.59724" lon="3.72076">
        <ele>164.3</ele>
        <time>2021-11-01T14:15:28Z</time>
      </trkpt>
      <trkpt lat="43.59721" lon="3.72055">
        <ele>166</ele>
        <time>2021-11-01T14:15:38Z</time>
      </trkpt>
      <trkpt lat="43.5972" lon="3.72033">
        <ele>167.5</ele>
        <time>2021-11-01T14:15:48Z</time>
      </trkpt>
      <trkpt lat="43.5972" lon="3.72014">
        <ele>168.8</ele>
        <time>2021-11-01T14:15:58Z</time>
      </trkpt>
      <trkpt lat="43.59723" lon="3.71997">
        <ele>170.2</ele>
        <time>2021-11-01T14:16:08Z</time>
      </trkpt>
      <trkpt lat="43.59725" lon="3.7198">
        <ele>171.2</ele>
        <time>2021-11-01T14:16:18Z</time>
      </trkpt>
      <trkpt lat="43.59728" lon="3.71963">
        <ele>172.6</ele>
        <time>2021-11-01T14:16:28Z</time>
      </trkpt>
      <trkpt lat="43.59729" lon="3.71946">
        <ele>174.3</ele>
        <time>2021-11-01T14:16:38Z</time>
      </trkpt>
      <trkpt lat="43.59729" lon="3.71929">
        <ele>176</ele>
        <time>2021-11-01T14:16:48Z</time>
      </trkpt>
      <trkpt lat="43.59729" lon="3.71909">
        <ele>177.9</ele>
        <time>2021-11-01T14:16:58Z</time>
      </trkpt>
      <trkpt lat="43.59734" lon="3.71888">
        <ele>179.2</ele>
        <time>2021-11-01T14:17:08Z</time>
      </trkpt>
      <trkpt lat="43.59739" lon="3.71868">
        <ele>180.8</ele>
        <time>2021-11-01T14:17:18Z</time>
      </trkpt>
      <trkpt lat="43.59747" lon="3.71845">
        <ele>182.2</ele>
        <time>2021-11-01T14:17:28Z</time>
      </trkpt>
      <trkpt lat="43.59757" lon="3.71826">
        <ele>182.7</ele>
        <time>2021-11-01T14:17:38Z</time>
      </trkpt>
      <trkpt lat="43.59765" lon="3.71808">
        <ele>183.6</ele>
        <time>2021-11-01T14:17:48Z</time>
      </trkpt>
      <trkpt lat="43.59772" lon="3.7179">
        <ele>185.4</ele>
        <time>2021-11-01T14:17:58Z</time>
      </trkpt>
      <trkpt lat="43.59778" lon="3.71774">
        <ele>187.4</ele>
        <time>2021-11-01T14:18:08Z</time>
      </trkpt>
      <trkpt lat="43.59781" lon="3.71758">
        <ele>189</ele>
        <time>2021-11-01T14:18:18Z</time>
      </trkpt>
      <trkpt lat="43.59787" lon="3.71742">
        <ele>190.2</ele>
        <time>2021-11-01T14:18:28Z</time>
      </trkpt>
      <trkpt lat="43.59794" lon="3.71726">
        <ele>191.8</ele>
        <time>2021-11-01T14:18:38Z</time>
      </trkpt>
      <trkpt lat="43.59801" lon="3.71709">
        <ele>193.1</ele>
        <time>2021-11-01T14:18:48Z</time>
      </trkpt>
      <trkpt lat="43.59811" lon="3.71691">
        <ele>193.3</ele>
        <time>2021-11-01T14:18:58Z</time>
      </trkpt>
      <trkpt lat="43.59819" lon="3.71687">
        <ele>192.4</ele>
        <time>2021-11-01T14:20:18Z</time>
      </trkpt>
      <trkpt lat="43.59848" lon="3.71679">
        <ele>190</ele>
        <time>2021-11-01T14:20:38Z</time>
      </trkpt>
      <trkpt lat="43.59869" lon="3.71631">
        <ele>185.6</ele>
        <time>2021-11-01T14:20:48Z</time>
      </trkpt>
      <trkpt lat="43.59891" lon="3.71586">
        <ele>180.8</ele>
        <time>2021-11-01T14:20:58Z</time>
      </trkpt>
      <trkpt lat="43.59924" lon="3.71558">
        <ele>177.6</ele>
        <time>2021-11-01T14:21:08Z</time>
      </trkpt>
      <trkpt lat="43.59928" lon="3.71536">
        <ele>177</ele>
        <time>2021-11-01T14:21:28Z</time>
      </trkpt>
      <trkpt lat="43.59924" lon="3.71509">
        <ele>173.2</ele>
        <time>2021-11-01T14:21:38Z</time>
      </trkpt>
      <trkpt lat="43.59915" lon="3.71477">
        <ele>166.7</ele>
        <time>2021-11-01T14:21:48Z</time>
      </trkpt>
      <trkpt lat="43.59901" lon="3.71431">
        <ele>157.6</ele>
        <time>2021-11-01T14:21:58Z</time>
      </trkpt>
      <trkpt lat="43.5989" lon="3.71387">
        <ele>150.3</ele>
        <time>2021-11-01T14:22:18Z</time>
      </trkpt>
      <trkpt lat="43.59881" lon="3.71326">
        <ele>145.2</ele>
        <time>2021-11-01T14:22:28Z</time>
      </trkpt>
      <trkpt lat="43.59876" lon="3.71281">
        <ele>141.5</ele>
        <time>2021-11-01T14:22:38Z</time>
      </trkpt>
      <trkpt lat="43.59883" lon="3.7125">
        <ele>141.3</ele>
        <time>2021-11-01T14:22:48Z</time>
      </trkpt>
      <trkpt lat="43.59888" lon="3.71222">
        <ele>139.8</ele>
        <time>2021-11-01T14:22:58Z</time>
      </trkpt>
      <trkpt lat="43.59897" lon="3.71176">
        <ele>137.8</ele>
        <time>2021-11-01T14:23:08Z</time>
      </trkpt>
      <trkpt lat="43.59909" lon="3.71136">
        <ele>135.9</ele>
        <time>2021-11-01T14:23:18Z</time>
      </trkpt>
      <trkpt lat="43.59921" lon="3.71081">
        <ele>128.7</ele>
        <time>2021-11-01T14:23:28Z</time>
      </trkpt>
      <trkpt lat="43.59938" lon="3.71041">
        <ele>126.9</ele>
        <time>2021-11-01T14:23:38Z</time>
      </trkpt>
      <trkpt lat="43.59943" lon="3.71026">
        <ele>126</ele>
        <time>2021-11-01T14:23:48Z</time>
      </trkpt>
      <trkpt lat="43.5995" lon="3.71006">
        <ele>126.2</ele>
        <time>2021-11-01T14:23:58Z</time>
      </trkpt>
      <trkpt lat="43.59953" lon="3.70968">
        <ele>128.4</ele>
        <time>2021-11-01T14:24:08Z</time>
      </trkpt>
      <trkpt lat="43.59961" lon="3.70942">
        <ele>129.7</ele>
        <time>2021-11-01T14:24:18Z</time>
      </trkpt>
      <trkpt lat="43.59967" lon="3.70924">
        <ele>129.6</ele>
        <time>2021-11-01T14:24:28Z</time>
      </trkpt>
      <trkpt lat="43.59985" lon="3.7091">
        <ele>130.3</ele>
        <time>2021-11-01T14:24:38Z</time>
      </trkpt>
      <trkpt lat="43.59993" lon="3.70937">
        <ele>129.2</ele>
        <time>2021-11-01T14:24:48Z</time>
      </trkpt>
      <trkpt lat="43.60008" lon="3.70969">
        <ele>128.5</ele>
        <time>2021-11-01T14:24:58Z</time>
      </trkpt>
      <trkpt lat="43.60037" lon="3.70991">
        <ele>128.8</ele>
        <time>2021-11-01T14:25:08Z</time>
      </trkpt>
      <trkpt lat="43.60062" lon="3.71015">
        <ele>131</ele>
        <time>2021-11-01T14:25:18Z</time>
      </trkpt>
      <trkpt lat="43.6008" lon="3.71044">
        <ele>133</ele>
        <time>2021-11-01T14:25:28Z</time>
      </trkpt>
      <trkpt lat="43.60093" lon="3.71076">
        <ele>133.8</ele>
        <time>2021-11-01T14:25:38Z</time>
      </trkpt>
      <trkpt lat="43.60109" lon="3.71104">
        <ele>135.6</ele>
        <time>2021-11-01T14:25:48Z</time>
      </trkpt>
      <trkpt lat="43.60127" lon="3.71129">
        <ele>135.8</ele>
        <time>2021-11-01T14:25:58Z</time>
      </trkpt>
      <trkpt lat="43.60153" lon="3.71141">
        <ele>135.6</ele>
        <time>2021-11-01T14:26:08Z</time>
      </trkpt>
      <trkpt lat="43.60192" lon="3.71129">
        <ele>136.7</ele>
        <time>2021-11-01T14:26:18Z</time>
      </trkpt>
      <trkpt lat="43.60224" lon="3.71116">
        <ele>138.1</ele>
        <time>2021-11-01T14:26:28Z</time>
      </trkpt>
      <trkpt lat="43.60252" lon="3.71112">
        <ele>138.4</ele>
        <time>2021-11-01T14:26:38Z</time>
      </trkpt>
      <trkpt lat="43.6028" lon="3.71109">
        <ele>140</ele>
        <time>2021-11-01T14:26:48Z</time>
      </trkpt>
      <trkpt lat="43.60305" lon="3.71107">
        <ele>141.5</ele>
        <time>2021-11-01T14:26:58Z</time>
      </trkpt>
      <trkpt lat="43.60331" lon="3.71104">
        <ele>142.8</ele>
        <time>2021-11-01T14:27:08Z</time>
      </trkpt>
      <trkpt lat="43.60356" lon="3.71104">
        <ele>143.2</ele>
        <time>2021-11-01T14:27:18Z</time>
      </trkpt>
      <trkpt lat="43.60381" lon="3.71106">
        <ele>143.6</ele>
        <time>2021-11-01T14:27:28Z</time>
      </trkpt>
      <trkpt lat="43.60405" lon="3.71109">
        <ele>144.4</ele>
        <time>2021-11-01T14:27:38Z</time>
      </trkpt>
      <trkpt lat="43.60432" lon="3.71105">
        <ele>145</ele>
        <time>2021-11-01T14:27:48Z</time>
      </trkpt>
      <trkpt lat="43.60456" lon="3.71069">
        <ele>143.7</ele>
        <time>2021-11-01T14:27:58Z</time>
      </trkpt>
      <trkpt lat="43.60481" lon="3.71036">
        <ele>144.1</ele>
        <time>2021-11-01T14:28:08Z</time>
      </trkpt>
      <trkpt lat="43.60506" lon="3.71008">
        <ele>145.1</ele>
        <time>2021-11-01T14:28:18Z</time>
      </trkpt>
      <trkpt lat="43.60536" lon="3.70999">
        <ele>144.8</ele>
        <time>2021-11-01T14:28:28Z</time>
      </trkpt>
      <trkpt lat="43.6057" lon="3.71004">
        <ele>145.5</ele>
        <time>2021-11-01T14:28:38Z</time>
      </trkpt>
      <trkpt lat="43.60606" lon="3.70987">
        <ele>147.4</ele>
        <time>2021-11-01T14:28:48Z</time>
      </trkpt>
      <trkpt lat="43.60642" lon="3.70992">
        <ele>148</ele>
        <time>2021-11-01T14:28:58Z</time>
      </trkpt>
      <trkpt lat="43.60674" lon="3.71009">
        <ele>148.6</ele>
        <time>2021-11-01T14:29:08Z</time>
      </trkpt>
      <trkpt lat="43.60703" lon="3.71025">
        <ele>149.6</ele>
        <time>2021-11-01T14:29:18Z</time>
      </trkpt>
      <trkpt lat="43.60727" lon="3.71031">
        <ele>149.9</ele>
        <time>2021-11-01T14:29:28Z</time>
      </trkpt>
      <trkpt lat="43.60746" lon="3.71035">
        <ele>151.8</ele>
        <time>2021-11-01T14:29:38Z</time>
      </trkpt>
      <trkpt lat="43.60761" lon="3.71047">
        <ele>152.9</ele>
        <time>2021-11-01T14:29:48Z</time>
      </trkpt>
      <trkpt lat="43.60777" lon="3.71072">
        <ele>153.3</ele>
        <time>2021-11-01T14:29:58Z</time>
      </trkpt>
      <trkpt lat="43.60782" lon="3.711">
        <ele>155.5</ele>
        <time>2021-11-01T14:30:08Z</time>
      </trkpt>
      <trkpt lat="43.60789" lon="3.71126">
        <ele>156.6</ele>
        <time>2021-11-01T14:30:18Z</time>
      </trkpt>
      <trkpt lat="43.60795" lon="3.71153">
        <ele>157.2</ele>
        <time>2021-11-01T14:30:28Z</time>
      </trkpt>
      <trkpt lat="43.60798" lon="3.71186">
        <ele>157.7</ele>
        <time>2021-11-01T14:30:38Z</time>
      </trkpt>
      <trkpt lat="43.60801" lon="3.71217">
        <ele>158</ele>
        <time>2021-11-01T14:30:48Z</time>
      </trkpt>
      <trkpt lat="43.60806" lon="3.7125">
        <ele>158</ele>
        <time>2021-11-01T14:30:58Z</time>
      </trkpt>
      <trkpt lat="43.6081" lon="3.71286">
        <ele>158.9</ele>
        <time>2021-11-01T14:31:08Z</time>
      </trkpt>
      <trkpt lat="43.60807" lon="3.71322">
        <ele>159.6</ele>
        <time>2021-11-01T14:31:18Z</time>
      </trkpt>
      <trkpt lat="43.60799" lon="3.71356">
        <ele>160.8</ele>
        <time>2021-11-01T14:31:28Z</time>
      </trkpt>
      <trkpt lat="43.60794" lon="3.71393">
        <ele>161.8</ele>
        <time>2021-11-01T14:31:38Z</time>
      </trkpt>
      <trkpt lat="43.6079" lon="3.71432">
        <ele>162.1</ele>
        <time>2021-11-01T14:31:48Z</time>
      </trkpt>
      <trkpt lat="43.6079" lon="3.71472">
        <ele>163.1</ele>
        <time>2021-11-01T14:31:58Z</time>
      </trkpt>
      <trkpt lat="43.60794" lon="3.71514">
        <ele>165.4</ele>
        <time>2021-11-01T14:32:08Z</time>
      </trkpt>
      <trkpt lat="43.60788" lon="3.71548">
        <ele>165.6</ele>
        <time>2021-11-01T14:32:18Z</time>
      </trkpt>
      <trkpt lat="43.60777" lon="3.71574">
        <ele>166.2</ele>
        <time>2021-11-01T14:32:28Z</time>
      </trkpt>
      <trkpt lat="43.60766" lon="3.716">
        <ele>169.1</ele>
        <time>2021-11-01T14:32:38Z</time>
      </trkpt>
      <trkpt lat="43.60762" lon="3.71631">
        <ele>169.9</ele>
        <time>2021-11-01T14:32:48Z</time>
      </trkpt>
      <trkpt lat="43.6076" lon="3.71662">
        <ele>170.5</ele>
        <time>2021-11-01T14:32:58Z</time>
      </trkpt>
      <trkpt lat="43.60756" lon="3.71688">
        <ele>170.7</ele>
        <time>2021-11-01T14:33:08Z</time>
      </trkpt>
      <trkpt lat="43.60751" lon="3.71704">
        <ele>171.6</ele>
        <time>2021-11-01T14:33:18Z</time>
      </trkpt>
      <trkpt lat="43.6075" lon="3.71678">
        <ele>171.6</ele>
        <time>2021-11-01T14:34:38Z</time>
      </trkpt>
      <trkpt lat="43.6075" lon="3.71661">
        <ele>172</ele>
        <time>2021-11-01T14:34:58Z</time>
      </trkpt>
      <trkpt lat="43.60751" lon="3.71635">
        <ele>171.9</ele>
        <time>2021-11-01T14:35:08Z</time>
      </trkpt>
      <trkpt lat="43.60749" lon="3.71605">
        <ele>173.6</ele>
        <time>2021-11-01T14:35:18Z</time>
      </trkpt>
      <trkpt lat="43.60743" lon="3.7157">
        <ele>176.4</ele>
        <time>2021-11-01T14:35:28Z</time>
      </trkpt>
      <trkpt lat="43.60738" lon="3.71546">
        <ele>177.6</ele>
        <time>2021-11-01T14:35:38Z</time>
      </trkpt>
      <trkpt lat="43.60727" lon="3.71547">
        <ele>180.7</ele>
        <time>2021-11-01T14:35:48Z</time>
      </trkpt>
      <trkpt lat="43.60721" lon="3.71547">
        <ele>182.4</ele>
        <time>2021-11-01T14:36:08Z</time>
      </trkpt>
      <trkpt lat="43.60714" lon="3.71548">
        <ele>184.2</ele>
        <time>2021-11-01T14:36:18Z</time>
      </trkpt>
      <trkpt lat="43.60714" lon="3.71565">
        <ele>185.6</ele>
        <time>2021-11-01T14:36:48Z</time>
      </trkpt>
      <trkpt lat="43.60717" lon="3.7159">
        <ele>185.7</ele>
        <time>2021-11-01T14:37:08Z</time>
      </trkpt>
      <trkpt lat="43.60711" lon="3.71624">
        <ele>187</ele>
        <time>2021-11-01T14:37:18Z</time>
      </trkpt>
      <trkpt lat="43.60693" lon="3.71651">
        <ele>189.9</ele>
        <time>2021-11-01T14:37:28Z</time>
      </trkpt>
      <trkpt lat="43.60669" lon="3.71666">
        <ele>191.8</ele>
        <time>2021-11-01T14:37:38Z</time>
      </trkpt>
      <trkpt lat="43.60641" lon="3.71676">
        <ele>192.7</ele>
        <time>2021-11-01T14:37:48Z</time>
      </trkpt>
      <trkpt lat="43.60617" lon="3.71695">
        <ele>193.7</ele>
        <time>2021-11-01T14:37:58Z</time>
      </trkpt>
      <trkpt lat="43.60612" lon="3.71727">
        <ele>194.7</ele>
        <time>2021-11-01T14:38:08Z</time>
      </trkpt>
      <trkpt lat="43.60624" lon="3.71746">
        <ele>195.9</ele>
        <time>2021-11-01T14:38:18Z</time>
      </trkpt>
      <trkpt lat="43.60633" lon="3.71767">
        <ele>197.4</ele>
        <time>2021-11-01T14:38:28Z</time>
      </trkpt>
      <trkpt lat="43.60644" lon="3.71787">
        <ele>198.4</ele>
        <time>2021-11-01T14:38:38Z</time>
      </trkpt>
      <trkpt lat="43.60652" lon="3.71805">
        <ele>200</ele>
        <time>2021-11-01T14:38:48Z</time>
      </trkpt>
      <trkpt lat="43.60657" lon="3.71821">
        <ele>202.1</ele>
        <time>2021-11-01T14:38:58Z</time>
      </trkpt>
      <trkpt lat="43.60661" lon="3.71838">
        <ele>204.1</ele>
        <time>2021-11-01T14:39:08Z</time>
      </trkpt>
      <trkpt lat="43.60664" lon="3.71856">
        <ele>204.7</ele>
        <time>2021-11-01T14:39:18Z</time>
      </trkpt>
      <trkpt lat="43.60667" lon="3.71879">
        <ele>205.7</ele>
        <time>2021-11-01T14:39:28Z</time>
      </trkpt>
      <trkpt lat="43.60672" lon="3.71902">
        <ele>206.1</ele>
        <time>2021-11-01T14:39:38Z</time>
      </trkpt>
      <trkpt lat="43.60677" lon="3.71929">
        <ele>204.8</ele>
        <time>2021-11-01T14:39:48Z</time>
      </trkpt>
      <trkpt lat="43.6068" lon="3.71951">
        <ele>202.5</ele>
        <time>2021-11-01T14:39:58Z</time>
      </trkpt>
      <trkpt lat="43.60662" lon="3.71953">
        <ele>199.9</ele>
        <time>2021-11-01T14:41:38Z</time>
      </trkpt>
      <trkpt lat="43.60641" lon="3.71955">
        <ele>195.9</ele>
        <time>2021-11-01T14:41:58Z</time>
      </trkpt>
      <trkpt lat="43.60623" lon="3.71957">
        <ele>190.9</ele>
        <time>2021-11-01T14:42:08Z</time>
      </trkpt>
      <trkpt lat="43.60603" lon="3.71961">
        <ele>185</ele>
        <time>2021-11-01T14:42:18Z</time>
      </trkpt>
      <trkpt lat="43.60579" lon="3.71969">
        <ele>177.5</ele>
        <time>2021-11-01T14:42:28Z</time>
      </trkpt>
      <trkpt lat="43.60557" lon="3.71976">
        <ele>170.7</ele>
        <time>2021-11-01T14:42:38Z</time>
      </trkpt>
      <trkpt lat="43.60522" lon="3.71988">
        <ele>165.7</ele>
        <time>2021-11-01T14:43:18Z</time>
      </trkpt>
      <trkpt lat="43.60527" lon="3.72027">
        <ele>163.1</ele>
        <time>2021-11-01T14:43:38Z</time>
      </trkpt>
      <trkpt lat="43.60544" lon="3.72076">
        <ele>161.6</ele>
        <time>2021-11-01T14:43:48Z</time>
      </trkpt>
      <trkpt lat="43.60566" lon="3.72141">
        <ele>159</ele>
        <time>2021-11-01T14:43:58Z</time>
      </trkpt>
      <trkpt lat="43.60555" lon="3.72196">
        <ele>156</ele>
        <time>2021-11-01T14:44:08Z</time>
      </trkpt>
      <trkpt lat="43.60528" lon="3.72271">
        <ele>153.3</ele>
        <time>2021-11-01T14:44:18Z</time>
      </trkpt>
      <trkpt lat="43.60502" lon="3.7233">
        <ele>152.2</ele>
        <time>2021-11-01T14:44:28Z</time>
      </trkpt>
      <trkpt lat="43.6048" lon="3.7238">
        <ele>151.1</ele>
        <time>2021-11-01T14:44:38Z</time>
      </trkpt>
      <trkpt lat="43.60454" lon="3.72434">
        <ele>150</ele>
        <time>2021-11-01T14:44:48Z</time>
      </trkpt>
      <trkpt lat="43.60431" lon="3.72461">
        <ele>148.3</ele>
        <time>2021-11-01T14:44:58Z</time>
      </trkpt>
      <trkpt lat="43.60408" lon="3.72472">
        <ele>147</ele>
        <time>2021-11-01T14:45:08Z</time>
      </trkpt>
      <trkpt lat="43.60377" lon="3.72491">
        <ele>147.1</ele>
        <time>2021-11-01T14:45:18Z</time>
      </trkpt>
      <trkpt lat="43.60341" lon="3.72515">
        <ele>146.1</ele>
        <time>2021-11-01T14:45:28Z</time>
      </trkpt>
      <trkpt lat="43.60299" lon="3.7254">
        <ele>144.9</ele>
        <time>2021-11-01T14:45:38Z</time>
      </trkpt>
      <trkpt lat="43.60243" lon="3.72579">
        <ele>143.1</ele>
        <time>2021-11-01T14:45:48Z</time>
      </trkpt>
      <trkpt lat="43.60196" lon="3.72626">
        <ele>141.3</ele>
        <time>2021-11-01T14:45:58Z</time>
      </trkpt>
      <trkpt lat="43.60154" lon="3.72673">
        <ele>140.7</ele>
        <time>2021-11-01T14:46:08Z</time>
      </trkpt>
      <trkpt lat="43.60123" lon="3.72721">
        <ele>139.2</ele>
        <time>2021-11-01T14:46:18Z</time>
      </trkpt>
      <trkpt lat="43.60077" lon="3.72765">
        <ele>136.6</ele>
        <time>2021-11-01T14:46:28Z</time>
      </trkpt>
      <trkpt lat="43.60054" lon="3.72761">
        <ele>135.5</ele>
        <time>2021-11-01T14:46:48Z</time>
      </trkpt>
      <trkpt lat="43.60039" lon="3.7273">
        <ele>135.2</ele>
        <time>2021-11-01T14:47:08Z</time>
      </trkpt>
      <trkpt lat="43.6001" lon="3.72713">
        <ele>135.2</ele>
        <time>2021-11-01T14:47:18Z</time>
      </trkpt>
      <trkpt lat="43.5998" lon="3.72727">
        <ele>134.8</ele>
        <time>2021-11-01T14:47:28Z</time>
      </trkpt>
      <trkpt lat="43.59958" lon="3.72781">
        <ele>131.3</ele>
        <time>2021-11-01T14:47:38Z</time>
      </trkpt>
      <trkpt lat="43.59926" lon="3.72845">
        <ele>131.4</ele>
        <time>2021-11-01T14:47:48Z</time>
      </trkpt>
      <trkpt lat="43.59901" lon="3.72897">
        <ele>131.7</ele>
        <time>2021-11-01T14:47:58Z</time>
      </trkpt>
      <trkpt lat="43.5988" lon="3.72949">
        <ele>130.9</ele>
        <time>2021-11-01T14:48:08Z</time>
      </trkpt>
      <trkpt lat="43.59859" lon="3.72998">
        <ele>129.4</ele>
        <time>2021-11-01T14:48:18Z</time>
      </trkpt>
      <trkpt lat="43.59843" lon="3.73062">
        <ele>130</ele>
        <time>2021-11-01T14:48:28Z</time>
      </trkpt>
      <trkpt lat="43.59834" lon="3.73111">
        <ele>130</ele>
        <time>2021-11-01T14:48:38Z</time>
      </trkpt>
      <trkpt lat="43.59858" lon="3.73146">
        <ele>127.2</ele>
        <time>2021-11-01T14:48:48Z</time>
      </trkpt>
      <trkpt lat="43.59873" lon="3.73185">
        <ele>126.5</ele>
        <time>2021-11-01T14:48:58Z</time>
      </trkpt>
      <trkpt lat="43.59893" lon="3.7322">
        <ele>124.9</ele>
        <time>2021-11-01T14:49:08Z</time>
      </trkpt>
      <trkpt lat="43.59932" lon="3.73225">
        <ele>123.9</ele>
        <time>2021-11-01T14:49:18Z</time>
      </trkpt>
      <trkpt lat="43.59971" lon="3.73232">
        <ele>125.6</ele>
        <time>2021-11-01T14:49:28Z</time>
      </trkpt>
      <trkpt lat="43.59989" lon="3.73276">
        <ele>127.7</ele>
        <time>2021-11-01T14:49:38Z</time>
      </trkpt>
      <trkpt lat="43.60009" lon="3.73324">
        <ele>126.5</ele>
        <time>2021-11-01T14:49:48Z</time>
      </trkpt>
      <trkpt lat="43.60048" lon="3.73393">
        <ele>123.3</ele>
        <time>2021-11-01T14:49:58Z</time>
      </trkpt>
      <trkpt lat="43.6008" lon="3.73484">
        <ele>121</ele>
        <time>2021-11-01T14:50:08Z</time>
      </trkpt>
      <trkpt lat="43.60105" lon="3.736">
        <ele>116.4</ele>
        <time>2021-11-01T14:50:18Z</time>
      </trkpt>
      <trkpt lat="43.60119" lon="3.73705">
        <ele>116.1</ele>
        <time>2021-11-01T14:50:28Z</time>
      </trkpt>
      <trkpt lat="43.60112" lon="3.73785">
        <ele>116.9</ele>
        <time>2021-11-01T14:50:38Z</time>
      </trkpt>
      <trkpt lat="43.60104" lon="3.73849">
        <ele>118.4</ele>
        <time>2021-11-01T14:50:48Z</time>
      </trkpt>
      <trkpt lat="43.60086" lon="3.73901">
        <ele>119.3</ele>
        <time>2021-11-01T14:50:58Z</time>
      </trkpt>
      <trkpt lat="43.60071" lon="3.7395">
        <ele>118.8</ele>
        <time>2021-11-01T14:51:08Z</time>
      </trkpt>
      <trkpt lat="43.6012" lon="3.73942">
        <ele>115.9</ele>
        <time>2021-11-01T14:51:18Z</time>
      </trkpt>
      <trkpt lat="43.60183" lon="3.73916">
        <ele>111.8</ele>
        <time>2021-11-01T14:51:28Z</time>
      </trkpt>
      <trkpt lat="43.60247" lon="3.73914">
        <ele>111.9</ele>
        <time>2021-11-01T14:51:38Z</time>
      </trkpt>
      <trkpt lat="43.60295" lon="3.73934">
        <ele>115</ele>
        <time>2021-11-01T14:51:48Z</time>
      </trkpt>
      <trkpt lat="43.60329" lon="3.73953">
        <ele>117.1</ele>
        <time>2021-11-01T14:51:58Z</time>
      </trkpt>
      <trkpt lat="43.60357" lon="3.73957">
        <ele>118.4</ele>
        <time>2021-11-01T14:52:08Z</time>
      </trkpt>
      <trkpt lat="43.60389" lon="3.73952">
        <ele>119.2</ele>
        <time>2021-11-01T14:52:18Z</time>
      </trkpt>
      <trkpt lat="43.60422" lon="3.73971">
        <ele>117.1</ele>
        <time>2021-11-01T14:52:28Z</time>
      </trkpt>
      <trkpt lat="43.60424" lon="3.74077">
        <ele>110.7</ele>
        <time>2021-11-01T14:52:38Z</time>
      </trkpt>
      <trkpt lat="43.60423" lon="3.74188">
        <ele>109.5</ele>
        <time>2021-11-01T14:52:48Z</time>
      </trkpt>
      <trkpt lat="43.60418" lon="3.74287">
        <ele>110.1</ele>
        <time>2021-11-01T14:52:58Z</time>
      </trkpt>
      <trkpt lat="43.60417" lon="3.74378">
        <ele>109.4</ele>
        <time>2021-11-01T14:53:08Z</time>
      </trkpt>
      <trkpt lat="43.60417" lon="3.74475">
        <ele>105.9</ele>
        <time>2021-11-01T14:53:18Z</time>
      </trkpt>
      <trkpt lat="43.60418" lon="3.74586">
        <ele>103</ele>
        <time>2021-11-01T14:53:28Z</time>
      </trkpt>
      <trkpt lat="43.60423" lon="3.74692">
        <ele>101.5</ele>
        <time>2021-11-01T14:53:38Z</time>
      </trkpt>
      <trkpt lat="43.60433" lon="3.7478">
        <ele>102.7</ele>
        <time>2021-11-01T14:53:48Z</time>
      </trkpt>
      <trkpt lat="43.60424" lon="3.74866">
        <ele>101.5</ele>
        <time>2021-11-01T14:53:58Z</time>
      </trkpt>
      <trkpt lat="43.60442" lon="3.74957">
        <ele>100.4</ele>
        <time>2021-11-01T14:54:08Z</time>
      </trkpt>
      <trkpt lat="43.60456" lon="3.75038">
        <ele>100.8</ele>
        <time>2021-11-01T14:54:18Z</time>
      </trkpt>
      <trkpt lat="43.60427" lon="3.75086">
        <ele>101.3</ele>
        <time>2021-11-01T14:54:28Z</time>
      </trkpt>
      <trkpt lat="43.60392" lon="3.75136">
        <ele>101.7</ele>
        <time>2021-11-01T14:54:38Z</time>
      </trkpt>
      <trkpt lat="43.60355" lon="3.75187">
        <ele>101.7</ele>
        <time>2021-11-01T14:54:48Z</time>
      </trkpt>
      <trkpt lat="43.60318" lon="3.75239">
        <ele>101.6</ele>
        <time>2021-11-01T14:54:58Z</time>
      </trkpt>
      <trkpt lat="43.60282" lon="3.7529">
        <ele>101.5</ele>
        <time>2021-11-01T14:55:08Z</time>
      </trkpt>
      <trkpt lat="43.60277" lon="3.75352">
        <ele>102.4</ele>
        <time>2021-11-01T14:55:18Z</time>
      </trkpt>
      <trkpt lat="43.60284" lon="3.75423">
        <ele>101.6</ele>
        <time>2021-11-01T14:55:28Z</time>
      </trkpt>
      <trkpt lat="43.60314" lon="3.7549">
        <ele>99.5</ele>
        <time>2021-11-01T14:55:38Z</time>
      </trkpt>
      <trkpt lat="43.60311" lon="3.75575">
        <ele>98.8</ele>
        <time>2021-11-01T14:55:48Z</time>
      </trkpt>
      <trkpt lat="43.60301" lon="3.75661">
        <ele>97.4</ele>
        <time>2021-11-01T14:55:58Z</time>
      </trkpt>
      <trkpt lat="43.60273" lon="3.75731">
        <ele>97.1</ele>
        <time>2021-11-01T14:56:08Z</time>
      </trkpt>
      <trkpt lat="43.60248" lon="3.75795">
        <ele>98</ele>
        <time>2021-11-01T14:56:18Z</time>
      </trkpt>
      <trkpt lat="43.60209" lon="3.75846">
        <ele>97.2</ele>
        <time>2021-11-01T14:56:28Z</time>
      </trkpt>
      <trkpt lat="43.60156" lon="3.75885">
        <ele>95.1</ele>
        <time>2021-11-01T14:56:38Z</time>
      </trkpt>
      <trkpt lat="43.60102" lon="3.75936">
        <ele>92.6</ele>
        <time>2021-11-01T14:56:48Z</time>
      </trkpt>
      <trkpt lat="43.60075" lon="3.76025">
        <ele>91.6</ele>
        <time>2021-11-01T14:56:58Z</time>
      </trkpt>
      <trkpt lat="43.60069" lon="3.76098">
        <ele>91.6</ele>
        <time>2021-11-01T14:57:08Z</time>
      </trkpt>
      <trkpt lat="43.60103" lon="3.76163">
        <ele>90.5</ele>
        <time>2021-11-01T14:57:18Z</time>
      </trkpt>
      <trkpt lat="43.60133" lon="3.76207">
        <ele>89.3</ele>
        <time>2021-11-01T14:57:28Z</time>
      </trkpt>
      <trkpt lat="43.60148" lon="3.76269">
        <ele>87.7</ele>
        <time>2021-11-01T14:57:38Z</time>
      </trkpt>
      <trkpt lat="43.60137" lon="3.76335">
        <ele>85.3</ele>
        <time>2021-11-01T14:57:48Z</time>
      </trkpt>
      <trkpt lat="43.60112" lon="3.76394">
        <ele>82.7</ele>
        <time>2021-11-01T14:57:58Z</time>
      </trkpt>
      <trkpt lat="43.60072" lon="3.76447">
        <ele>82</ele>
        <time>2021-11-01T14:58:08Z</time>
      </trkpt>
      <trkpt lat="43.60042" lon="3.76484">
        <ele>80.2</ele>
        <time>2021-11-01T14:58:18Z</time>
      </trkpt>
      <trkpt lat="43.60014" lon="3.76512">
        <ele>79.4</ele>
        <time>2021-11-01T14:58:28Z</time>
      </trkpt>
      <trkpt lat="43.59986" lon="3.7655">
        <ele>78.3</ele>
        <time>2021-11-01T14:58:38Z</time>
      </trkpt>
      <trkpt lat="43.59959" lon="3.76633">
        <ele>77</ele>
        <time>2021-11-01T14:58:48Z</time>
      </trkpt>
      <trkpt lat="43.59949" lon="3.76731">
        <ele>74.7</ele>
        <time>2021-11-01T14:58:58Z</time>
      </trkpt>
      <trkpt lat="43.59928" lon="3.76824">
        <ele>73.8</ele>
        <time>2021-11-01T14:59:08Z</time>
      </trkpt>
      <trkpt lat="43.59906" lon="3.76921">
        <ele>71.6</ele>
        <time>2021-11-01T14:59:18Z</time>
      </trkpt>
      <trkpt lat="43.59875" lon="3.76997">
        <ele>70</ele>
        <time>2021-11-01T14:59:28Z</time>
      </trkpt>
      <trkpt lat="43.59829" lon="3.77069">
        <ele>66.3</ele>
        <time>2021-11-01T14:59:38Z</time>
      </trkpt>
      <trkpt lat="43.59781" lon="3.77124">
        <ele>65</ele>
        <time>2021-11-01T14:59:48Z</time>
      </trkpt>
      <trkpt lat="43.59736" lon="3.7717">
        <ele>62.9</ele>
        <time>2021-11-01T14:59:58Z</time>
      </trkpt>
      <trkpt lat="43.59744" lon="3.77194">
        <ele>62.8</ele>
        <time>2021-11-01T15:00:08Z</time>
      </trkpt>
      <trkpt lat="43.59772" lon="3.77223">
        <ele>62.8</ele>
        <time>2021-11-01T15:00:18Z</time>
      </trkpt>
      <trkpt lat="43.59808" lon="3.77254">
        <ele>63.2</ele>
        <time>2021-11-01T15:00:28Z</time>
      </trkpt>
      <trkpt lat="43.59847" lon="3.77284">
        <ele>64.6</ele>
        <time>2021-11-01T15:00:38Z</time>
      </trkpt>
      <trkpt lat="43.59876" lon="3.77322">
        <ele>66.5</ele>
        <time>2021-11-01T15:00:48Z</time>
      </trkpt>
      <trkpt lat="43.59903" lon="3.77359">
        <ele>67.1</ele>
        <time>2021-11-01T15:00:58Z</time>
      </trkpt>
      <trkpt lat="43.59932" lon="3.77399">
        <ele>67.4</ele>
        <time>2021-11-01T15:01:08Z</time>
      </trkpt>
      <trkpt lat="43.59968" lon="3.77431">
        <ele>67</ele>
        <time>2021-11-01T15:01:18Z</time>
      </trkpt>
      <trkpt lat="43.60013" lon="3.77475">
        <ele>63.9</ele>
        <time>2021-11-01T15:01:28Z</time>
      </trkpt>
      <trkpt lat="43.60062" lon="3.77511">
        <ele>61.6</ele>
        <time>2021-11-01T15:01:38Z</time>
      </trkpt>
      <trkpt lat="43.60101" lon="3.77583">
        <ele>57.7</ele>
        <time>2021-11-01T15:01:48Z</time>
      </trkpt>
      <trkpt lat="43.60166" lon="3.77648">
        <ele>54.4</ele>
        <time>2021-11-01T15:01:58Z</time>
      </trkpt>
      <trkpt lat="43.60237" lon="3.77693">
        <ele>52.1</ele>
        <time>2021-11-01T15:02:08Z</time>
      </trkpt>
      <trkpt lat="43.60315" lon="3.77729">
        <ele>50.9</ele>
        <time>2021-11-01T15:02:18Z</time>
      </trkpt>
      <trkpt lat="43.60391" lon="3.77769">
        <ele>52.8</ele>
        <time>2021-11-01T15:02:28Z</time>
      </trkpt>
      <trkpt lat="43.60434" lon="3.77827">
        <ele>57</ele>
        <time>2021-11-01T15:02:38Z</time>
      </trkpt>
      <trkpt lat="43.60468" lon="3.77878">
        <ele>58.3</ele>
        <time>2021-11-01T15:02:48Z</time>
      </trkpt>
      <trkpt lat="43.60497" lon="3.77928">
        <ele>59.1</ele>
        <time>2021-11-01T15:02:58Z</time>
      </trkpt>
      <trkpt lat="43.60535" lon="3.77973">
        <ele>58.2</ele>
        <time>2021-11-01T15:03:08Z</time>
      </trkpt>
      <trkpt lat="43.60561" lon="3.78014">
        <ele>58.2</ele>
        <time>2021-11-01T15:03:18Z</time>
      </trkpt>
      <trkpt lat="43.60564" lon="3.78081">
        <ele>58.2</ele>
        <time>2021-11-01T15:03:28Z</time>
      </trkpt>
      <trkpt lat="43.60577" lon="3.78151">
        <ele>58.5</ele>
        <time>2021-11-01T15:03:38Z</time>
      </trkpt>
      <trkpt lat="43.60594" lon="3.78212">
        <ele>59.4</ele>
        <time>2021-11-01T15:03:48Z</time>
      </trkpt>
      <trkpt lat="43.60615" lon="3.78271">
        <ele>59.9</ele>
        <time>2021-11-01T15:03:58Z</time>
      </trkpt>
      <trkpt lat="43.60646" lon="3.7833">
        <ele>60.3</ele>
        <time>2021-11-01T15:04:08Z</time>
      </trkpt>
      <trkpt lat="43.60662" lon="3.7839">
        <ele>62</ele>
        <time>2021-11-01T15:04:18Z</time>
      </trkpt>
      <trkpt lat="43.60692" lon="3.78436">
        <ele>62.7</ele>
        <time>2021-11-01T15:04:28Z</time>
      </trkpt>
      <trkpt lat="43.60717" lon="3.78486">
        <ele>63</ele>
        <time>2021-11-01T15:04:38Z</time>
      </trkpt>
      <trkpt lat="43.60739" lon="3.78541">
        <ele>63.8</ele>
        <time>2021-11-01T15:04:48Z</time>
      </trkpt>
      <trkpt lat="43.60766" lon="3.78598">
        <ele>64.8</ele>
        <time>2021-11-01T15:04:58Z</time>
      </trkpt>
      <trkpt lat="43.60793" lon="3.78649">
        <ele>65.9</ele>
        <time>2021-11-01T15:05:08Z</time>
      </trkpt>
      <trkpt lat="43.60812" lon="3.7869">
        <ele>66.4</ele>
        <time>2021-11-01T15:05:18Z</time>
      </trkpt>
      <trkpt lat="43.60827" lon="3.78728">
        <ele>67.8</ele>
        <time>2021-11-01T15:05:28Z</time>
      </trkpt>
      <trkpt lat="43.60846" lon="3.78769">
        <ele>69.9</ele>
        <time>2021-11-01T15:05:38Z</time>
      </trkpt>
      <trkpt lat="43.60861" lon="3.78807">
        <ele>74.1</ele>
        <time>2021-11-01T15:05:48Z</time>
      </trkpt>
      <trkpt lat="43.60872" lon="3.7884">
        <ele>76.6</ele>
        <time>2021-11-01T15:05:58Z</time>
      </trkpt>
      <trkpt lat="43.60884" lon="3.78879">
        <ele>78.5</ele>
        <time>2021-11-01T15:06:08Z</time>
      </trkpt>
      <trkpt lat="43.60886" lon="3.7892">
        <ele>79.1</ele>
        <time>2021-11-01T15:06:18Z</time>
      </trkpt>
      <trkpt lat="43.60877" lon="3.78963">
        <ele>80.2</ele>
        <time>2021-11-01T15:06:28Z</time>
      </trkpt>
      <trkpt lat="43.6087" lon="3.78997">
        <ele>80.3</ele>
        <time>2021-11-01T15:06:38Z</time>
      </trkpt>
      <trkpt lat="43.60859" lon="3.79051">
        <ele>78.2</ele>
        <time>2021-11-01T15:06:48Z</time>
      </trkpt>
      <trkpt lat="43.60846" lon="3.79137">
        <ele>76.2</ele>
        <time>2021-11-01T15:06:58Z</time>
      </trkpt>
      <trkpt lat="43.60837" lon="3.79256">
        <ele>68.9</ele>
        <time>2021-11-01T15:07:08Z</time>
      </trkpt>
      <trkpt lat="43.60841" lon="3.79389">
        <ele>64.5</ele>
        <time>2021-11-01T15:07:18Z</time>
      </trkpt>
      <trkpt lat="43.60855" lon="3.7952">
        <ele>60.1</ele>
        <time>2021-11-01T15:07:28Z</time>
      </trkpt>
      <trkpt lat="43.6088" lon="3.79647">
        <ele>55.7</ele>
        <time>2021-11-01T15:07:38Z</time>
      </trkpt>
      <trkpt lat="43.60907" lon="3.79775">
        <ele>52.1</ele>
        <time>2021-11-01T15:07:48Z</time>
      </trkpt>
      <trkpt lat="43.60936" lon="3.79891">
        <ele>49.6</ele>
        <time>2021-11-01T15:07:58Z</time>
      </trkpt>
      <trkpt lat="43.6096" lon="3.8">
        <ele>45.9</ele>
        <time>2021-11-01T15:08:08Z</time>
      </trkpt>
      <trkpt lat="43.60983" lon="3.80116">
        <ele>47.6</ele>
        <time>2021-11-01T15:08:18Z</time>
      </trkpt>
      <trkpt lat="43.61004" lon="3.8022">
        <ele>49.1</ele>
        <time>2021-11-01T15:08:28Z</time>
      </trkpt>
      <trkpt lat="43.61026" lon="3.80316">
        <ele>49.4</ele>
        <time>2021-11-01T15:08:38Z</time>
      </trkpt>
      <trkpt lat="43.61055" lon="3.804">
        <ele>50.9</ele>
        <time>2021-11-01T15:08:48Z</time>
      </trkpt>
      <trkpt lat="43.6109" lon="3.80477">
        <ele>50.1</ele>
        <time>2021-11-01T15:08:58Z</time>
      </trkpt>
      <trkpt lat="43.61124" lon="3.80555">
        <ele>49.5</ele>
        <time>2021-11-01T15:09:08Z</time>
      </trkpt>
      <trkpt lat="43.61163" lon="3.80629">
        <ele>49.4</ele>
        <time>2021-11-01T15:09:18Z</time>
      </trkpt>
      <trkpt lat="43.61198" lon="3.80707">
        <ele>49.1</ele>
        <time>2021-11-01T15:09:28Z</time>
      </trkpt>
      <trkpt lat="43.61229" lon="3.80771">
        <ele>49.3</ele>
        <time>2021-11-01T15:09:38Z</time>
      </trkpt>
      <trkpt lat="43.61254" lon="3.80837">
        <ele>49.3</ele>
        <time>2021-11-01T15:09:48Z</time>
      </trkpt>
      <trkpt lat="43.6128" lon="3.8091">
        <ele>49.1</ele>
        <time>2021-11-01T15:09:58Z</time>
      </trkpt>
      <trkpt lat="43.61297" lon="3.80988">
        <ele>48.3</ele>
        <time>2021-11-01T15:10:08Z</time>
      </trkpt>
      <trkpt lat="43.61312" lon="3.81062">
        <ele>47.1</ele>
        <time>2021-11-01T15:10:18Z</time>
      </trkpt>
      <trkpt lat="43.61333" lon="3.8113">
        <ele>46</ele>
        <time>2021-11-01T15:10:28Z</time>
      </trkpt>
      <trkpt lat="43.61359" lon="3.81205">
        <ele>45.5</ele>
        <time>2021-11-01T15:10:38Z</time>
      </trkpt>
      <trkpt lat="43.61383" lon="3.81269">
        <ele>44.9</ele>
        <time>2021-11-01T15:10:48Z</time>
      </trkpt>
      <trkpt lat="43.61401" lon="3.81329">
        <ele>43.6</ele>
        <time>2021-11-01T15:10:58Z</time>
      </trkpt>
      <trkpt lat="43.61408" lon="3.81413">
        <ele>41.1</ele>
        <time>2021-11-01T15:11:08Z</time>
      </trkpt>
      <trkpt lat="43.61412" lon="3.81507">
        <ele>39.4</ele>
        <time>2021-11-01T15:11:18Z</time>
      </trkpt>
      <trkpt lat="43.61421" lon="3.8156">
        <ele>37.7</ele>
        <time>2021-11-01T15:11:28Z</time>
      </trkpt>
      <trkpt lat="43.61453" lon="3.81549">
        <ele>38.2</ele>
        <time>2021-11-01T15:11:38Z</time>
      </trkpt>
      <trkpt lat="43.61476" lon="3.81588">
        <ele>37.7</ele>
        <time>2021-11-01T15:11:48Z</time>
      </trkpt>
      <trkpt lat="43.61493" lon="3.81647">
        <ele>36.9</ele>
        <time>2021-11-01T15:11:58Z</time>
      </trkpt>
      <trkpt lat="43.61503" lon="3.81685">
        <ele>34.6</ele>
        <time>2021-11-01T15:12:08Z</time>
      </trkpt>
      <trkpt lat="43.61513" lon="3.81719">
        <ele>31.6</ele>
        <time>2021-11-01T15:12:18Z</time>
      </trkpt>
      <trkpt lat="43.61528" lon="3.81772">
        <ele>38</ele>
        <time>2021-11-01T15:12:28Z</time>
      </trkpt>
      <trkpt lat="43.61546" lon="3.81837">
        <ele>36.8</ele>
        <time>2021-11-01T15:12:38Z</time>
      </trkpt>
      <trkpt lat="43.61552" lon="3.81904">
        <ele>37.6</ele>
        <time>2021-11-01T15:12:48Z</time>
      </trkpt>
      <trkpt lat="43.61542" lon="3.81966">
        <ele>37.7</ele>
        <time>2021-11-01T15:12:58Z</time>
      </trkpt>
    </trkseg>
  </trk>
</gpx>